PWSweather.com
Personal Weather Stations
Station Observations
KD5LEN
Ktxnorth1, North Richland Hills, TX 76180

Ktxnorth1North Richland Hills, TX 76180

Lat: 32.885294, Lon: -97.236048

Elevation: 694

Station Type: Vantage Pro 2

http://www.atzer0.net/VWS/root/index.htm

High Low Average
Temperature 63.9°F17.7°C 28.5°F-1.9°C 47.5°F8.6°C
Dew Point 57.3°F14.1°C 15.2°F-9.3°C 38.9°F3.8°C
Winds 30.0 mph 48.3 kmh 1.0 mph 1.6 kmh 9.0 mph SW14.5 kmh SW
Wind Gusts 38.0 mph61.2 kmh 4.0 mph6.4 kmh 19.0 mph30.6 kmh
Humidity 81% 57% 72%
Pressure 30.54 in1034.2 mb 29.78 in1008.5 mb -
Precipitation 0.00 in0.0 mm - -
Hour Temp Dew Point Humidity Winds Wind Gusts Pressure Precip Precip Rate Daily Precip Total
12:00 AM 63.0°F17.2°C 52.7°F11.5°C 69% 7.0 mph S11.3 kmh S 11.0 mph17.7 kmh 29.82 in1009.8 mb 0.00 in0.0 mm 0.00 in0.0 mm 0.00 in0.0 mm
12:02 AM 63.0°F17.2°C 52.7°F11.5°C 69% 6.0 mph SSE9.7 kmh SSE 7.0 mph11.3 kmh 29.82 in1009.8 mb 0.00 in0.0 mm 0.00 in0.0 mm 0.00 in0.0 mm
12:04 AM 62.9°F17.2°C 52.6°F11.4°C 69% 8.0 mph S12.9 kmh S 11.0 mph17.7 kmh 29.82 in1009.8 mb 0.00 in0.0 mm 0.00 in0.0 mm 0.00 in0.0 mm
12:06 AM 62.9°F17.2°C 52.6°F11.4°C 69% 11.0 mph S17.7 kmh S 11.0 mph17.7 kmh 29.81 in1009.5 mb 0.00 in0.0 mm 0.00 in0.0 mm 0.00 in0.0 mm
12:08 AM 63.0°F17.2°C 52.7°F11.5°C 69% 10.0 mph SSW16.1 kmh SSW 11.0 mph17.7 kmh 29.81 in1009.5 mb 0.00 in0.0 mm 0.00 in0.0 mm 0.00 in0.0 mm
12:10 AM 62.9°F17.2°C 52.6°F11.4°C 69% 7.0 mph S11.3 kmh S 11.0 mph17.7 kmh 29.81 in1009.5 mb 0.00 in0.0 mm 0.00 in0.0 mm 0.00 in0.0 mm
12:12 AM 62.9°F17.2°C 53.0°F11.7°C 70% 9.0 mph SSW14.5 kmh SSW 11.0 mph17.7 kmh 29.81 in1009.5 mb 0.00 in0.0 mm 0.00 in0.0 mm 0.00 in0.0 mm
12:14 AM 63.0°F17.2°C 53.1°F11.7°C 70% 10.0 mph S16.1 kmh S 12.0 mph19.3 kmh 29.81 in1009.5 mb 0.00 in0.0 mm 0.00 in0.0 mm 0.00 in0.0 mm
12:16 AM 63.1°F17.3°C 53.2°F11.8°C 70% 9.0 mph S14.5 kmh S 12.0 mph19.3 kmh 29.81 in1009.5 mb 0.00 in0.0 mm 0.00 in0.0 mm 0.00 in0.0 mm
12:18 AM 63.2°F17.3°C 53.3°F11.8°C 70% 9.0 mph SW14.5 kmh SW 13.0 mph20.9 kmh 29.81 in1009.5 mb 0.00 in0.0 mm 0.00 in0.0 mm 0.00 in0.0 mm
12:20 AM 63.2°F17.3°C 53.3°F11.8°C 70% 8.0 mph SSW12.9 kmh SSW 13.0 mph20.9 kmh 29.81 in1009.5 mb 0.00 in0.0 mm 0.00 in0.0 mm 0.00 in0.0 mm
12:22 AM 63.2°F17.3°C 53.3°F11.8°C 70% 5.0 mph S8.0 kmh S 13.0 mph20.9 kmh 29.81 in1009.5 mb 0.00 in0.0 mm 0.00 in0.0 mm 0.00 in0.0 mm
12:24 AM 63.3°F17.4°C 53.4°F11.9°C 70% 6.0 mph S9.7 kmh S 13.0 mph20.9 kmh 29.81 in1009.5 mb 0.00 in0.0 mm 0.00 in0.0 mm 0.00 in0.0 mm
12:26 AM 63.4°F17.4°C 53.8°F12.1°C 71% 11.0 mph S17.7 kmh S 15.0 mph24.1 kmh 29.81 in1009.5 mb 0.00 in0.0 mm 0.00 in0.0 mm 0.00 in0.0 mm
12:28 AM 63.5°F17.5°C 53.6°F12.0°C 70% 10.0 mph S16.1 kmh S 18.0 mph29.0 kmh 29.80 in1009.1 mb 0.00 in0.0 mm 0.00 in0.0 mm 0.00 in0.0 mm
12:30 AM 63.5°F17.5°C 53.6°F12.0°C 70% 6.0 mph S9.7 kmh S 18.0 mph29.0 kmh 29.81 in1009.5 mb 0.00 in0.0 mm 0.00 in0.0 mm 0.00 in0.0 mm
12:32 AM 63.5°F17.5°C 53.9°F12.2°C 71% 10.0 mph SW16.1 kmh SW 13.0 mph20.9 kmh 29.81 in1009.5 mb 0.00 in0.0 mm 0.00 in0.0 mm 0.00 in0.0 mm
12:34 AM 63.5°F17.5°C 53.9°F12.2°C 71% 13.0 mph S20.9 kmh S 13.0 mph20.9 kmh 29.80 in1009.1 mb 0.00 in0.0 mm 0.00 in0.0 mm 0.00 in0.0 mm
12:36 AM 63.6°F17.6°C 54.0°F12.2°C 71% 11.0 mph S17.7 kmh S 17.0 mph27.4 kmh 29.80 in1009.1 mb 0.00 in0.0 mm 0.00 in0.0 mm 0.00 in0.0 mm
12:38 AM 63.6°F17.6°C 54.0°F12.2°C 71% 12.0 mph S19.3 kmh S 17.0 mph27.4 kmh 29.80 in1009.1 mb 0.00 in0.0 mm 0.00 in0.0 mm 0.00 in0.0 mm
12:40 AM 63.7°F17.6°C 54.1°F12.3°C 71% 9.0 mph S14.5 kmh S 17.0 mph27.4 kmh 29.80 in1009.1 mb 0.00 in0.0 mm 0.00 in0.0 mm 0.00 in0.0 mm
12:42 AM 63.7°F17.6°C 54.1°F12.3°C 71% 9.0 mph SW14.5 kmh SW 17.0 mph27.4 kmh 29.80 in1009.1 mb 0.00 in0.0 mm 0.00 in0.0 mm 0.00 in0.0 mm
12:44 AM 63.7°F17.6°C 54.1°F12.3°C 71% 10.0 mph S16.1 kmh S 17.0 mph27.4 kmh 29.80 in1009.1 mb 0.00 in0.0 mm 0.00 in0.0 mm 0.00 in0.0 mm
12:46 AM 63.7°F17.6°C 54.1°F12.3°C 71% 11.0 mph S17.7 kmh S 17.0 mph27.4 kmh 29.80 in1009.1 mb 0.00 in0.0 mm 0.00 in0.0 mm 0.00 in0.0 mm
12:48 AM 63.8°F17.7°C 54.2°F12.3°C 71% 10.0 mph S16.1 kmh S 17.0 mph27.4 kmh 29.80 in1009.1 mb 0.00 in0.0 mm 0.00 in0.0 mm 0.00 in0.0 mm
12:50 AM 63.7°F17.6°C 54.1°F12.3°C 71% 13.0 mph SSW20.9 kmh SSW 17.0 mph27.4 kmh 29.80 in1009.1 mb 0.00 in0.0 mm 0.00 in0.0 mm 0.00 in0.0 mm
12:52 AM 63.7°F17.6°C 54.1°F12.3°C 71% 10.0 mph SSW16.1 kmh SSW 17.0 mph27.4 kmh 29.81 in1009.5 mb 0.00 in0.0 mm 0.00 in0.0 mm 0.00 in0.0 mm
12:54 AM 63.7°F17.6°C 54.1°F12.3°C 71% 7.0 mph S11.3 kmh S 17.0 mph27.4 kmh 29.80 in1009.1 mb 0.00 in0.0 mm 0.00 in0.0 mm 0.00 in0.0 mm
12:56 AM 63.7°F17.6°C 54.1°F12.3°C 71% 8.0 mph SSE12.9 kmh SSE 17.0 mph27.4 kmh 29.80 in1009.1 mb 0.00 in0.0 mm 0.00 in0.0 mm 0.00 in0.0 mm
12:58 AM 63.7°F17.6°C 54.5°F12.5°C 72% 9.0 mph S14.5 kmh S 17.0 mph27.4 kmh 29.80 in1009.1 mb 0.00 in0.0 mm 0.00 in0.0 mm 0.00 in0.0 mm
01:00 AM 63.6°F17.6°C 54.4°F12.4°C 72% 7.0 mph SSW11.3 kmh SSW 17.0 mph27.4 kmh 29.80 in1009.1 mb 0.00 in0.0 mm 0.00 in0.0 mm 0.00 in0.0 mm
01:02 AM 63.6°F17.6°C 54.4°F12.4°C 72% 5.0 mph SSW8.0 kmh SSW 9.0 mph14.5 kmh 29.80 in1009.1 mb 0.00 in0.0 mm 0.00 in0.0 mm 0.00 in0.0 mm
01:04 AM 63.6°F17.6°C 54.4°F12.4°C 72% 5.0 mph S8.0 kmh S 13.0 mph20.9 kmh 29.81 in1009.5 mb 0.00 in0.0 mm 0.00 in0.0 mm 0.00 in0.0 mm
01:06 AM 63.5°F17.5°C 54.3°F12.4°C 72% 15.0 mph SSW24.1 kmh SSW 15.0 mph24.1 kmh 29.80 in1009.1 mb 0.00 in0.0 mm 0.00 in0.0 mm 0.00 in0.0 mm
01:08 AM 63.6°F17.6°C 54.8°F12.7°C 73% 8.0 mph SSW12.9 kmh SSW 16.0 mph25.7 kmh 29.80 in1009.1 mb 0.00 in0.0 mm 0.00 in0.0 mm 0.00 in0.0 mm
01:10 AM 63.7°F17.6°C 54.9°F12.7°C 73% 5.0 mph S8.0 kmh S 16.0 mph25.7 kmh 29.80 in1009.1 mb 0.00 in0.0 mm 0.00 in0.0 mm 0.00 in0.0 mm
01:12 AM 63.6°F17.6°C 54.4°F12.4°C 72% 7.0 mph S11.3 kmh S 16.0 mph25.7 kmh 29.81 in1009.5 mb 0.00 in0.0 mm 0.00 in0.0 mm 0.00 in0.0 mm
01:14 AM 63.5°F17.5°C 54.7°F12.6°C 73% 11.0 mph SSW17.7 kmh SSW 16.0 mph25.7 kmh 29.81 in1009.5 mb 0.00 in0.0 mm 0.00 in0.0 mm 0.00 in0.0 mm
01:16 AM 63.6°F17.6°C 54.8°F12.7°C 73% 9.0 mph S14.5 kmh S 16.0 mph25.7 kmh 29.80 in1009.1 mb 0.00 in0.0 mm 0.00 in0.0 mm 0.00 in0.0 mm
01:18 AM 63.6°F17.6°C 54.8°F12.7°C 73% 5.0 mph S8.0 kmh S 16.0 mph25.7 kmh 29.80 in1009.1 mb 0.00 in0.0 mm 0.00 in0.0 mm 0.00 in0.0 mm
01:20 AM 63.5°F17.5°C 54.7°F12.6°C 73% 11.0 mph WSW17.7 kmh WSW 16.0 mph25.7 kmh 29.80 in1009.1 mb 0.00 in0.0 mm 0.00 in0.0 mm 0.00 in0.0 mm
01:22 AM 63.5°F17.5°C 54.7°F12.6°C 73% 5.0 mph SW8.0 kmh SW 16.0 mph25.7 kmh 29.80 in1009.1 mb 0.00 in0.0 mm 0.00 in0.0 mm 0.00 in0.0 mm
01:24 AM 63.5°F17.5°C 54.7°F12.6°C 73% 7.0 mph SSW11.3 kmh SSW 16.0 mph25.7 kmh 29.80 in1009.1 mb 0.00 in0.0 mm 0.00 in0.0 mm 0.00 in0.0 mm
01:26 AM 63.5°F17.5°C 54.7°F12.6°C 73% 4.0 mph S6.4 kmh S 16.0 mph25.7 kmh 29.80 in1009.1 mb 0.00 in0.0 mm 0.00 in0.0 mm 0.00 in0.0 mm
01:28 AM 63.4°F17.4°C 54.6°F12.6°C 73% 11.0 mph S17.7 kmh S 16.0 mph25.7 kmh 29.80 in1009.1 mb 0.00 in0.0 mm 0.00 in0.0 mm 0.00 in0.0 mm
01:30 AM 63.4°F17.4°C 54.6°F12.6°C 73% 7.0 mph SSE11.3 kmh SSE 16.0 mph25.7 kmh 29.80 in1009.1 mb 0.00 in0.0 mm 0.00 in0.0 mm 0.00 in0.0 mm
01:32 AM 63.3°F17.4°C 54.9°F12.7°C 74% 7.0 mph S11.3 kmh S 10.0 mph16.1 kmh 29.80 in1009.1 mb 0.00 in0.0 mm 0.00 in0.0 mm 0.00 in0.0 mm
01:34 AM 63.4°F17.4°C 55.0°F12.8°C 74% 7.0 mph ESE11.3 kmh ESE 14.0 mph22.5 kmh 29.80 in1009.1 mb 0.00 in0.0 mm 0.00 in0.0 mm 0.00 in0.0 mm
01:36 AM 63.4°F17.4°C 55.0°F12.8°C 74% 8.0 mph SE12.9 kmh SE 14.0 mph22.5 kmh 29.80 in1009.1 mb 0.00 in0.0 mm 0.00 in0.0 mm 0.00 in0.0 mm
01:38 AM 63.3°F17.4°C 54.9°F12.7°C 74% 6.0 mph SSW9.7 kmh SSW 14.0 mph22.5 kmh 29.80 in1009.1 mb 0.00 in0.0 mm 0.00 in0.0 mm 0.00 in0.0 mm
01:40 AM 63.3°F17.4°C 54.9°F12.7°C 74% 5.0 mph S8.0 kmh S 14.0 mph22.5 kmh 29.80 in1009.1 mb 0.00 in0.0 mm 0.00 in0.0 mm 0.00 in0.0 mm
01:42 AM 63.3°F17.4°C 54.9°F12.7°C 74% 9.0 mph SSW14.5 kmh SSW 14.0 mph22.5 kmh 29.80 in1009.1 mb 0.00 in0.0 mm 0.00 in0.0 mm 0.00 in0.0 mm
01:44 AM 63.3°F17.4°C 54.9°F12.7°C 74% 5.0 mph S8.0 kmh S 14.0 mph22.5 kmh 29.80 in1009.1 mb 0.00 in0.0 mm 0.00 in0.0 mm 0.00 in0.0 mm
01:46 AM 63.2°F17.3°C 54.8°F12.7°C 74% 5.0 mph SE8.0 kmh SE 14.0 mph22.5 kmh 29.80 in1009.1 mb 0.00 in0.0 mm 0.00 in0.0 mm 0.00 in0.0 mm
01:48 AM 63.2°F17.3°C 54.8°F12.7°C 74% 8.0 mph S12.9 kmh S 14.0 mph22.5 kmh 29.80 in1009.1 mb 0.00 in0.0 mm 0.00 in0.0 mm 0.00 in0.0 mm
01:50 AM 63.2°F17.3°C 54.8°F12.7°C 74% 4.0 mph SE6.4 kmh SE 16.0 mph25.7 kmh 29.80 in1009.1 mb 0.00 in0.0 mm 0.00 in0.0 mm 0.00 in0.0 mm
01:52 AM 63.2°F17.3°C 54.8°F12.7°C 74% 8.0 mph SSE12.9 kmh SSE 16.0 mph25.7 kmh 29.80 in1009.1 mb 0.00 in0.0 mm 0.00 in0.0 mm 0.00 in0.0 mm
01:54 AM 63.2°F17.3°C 55.2°F12.9°C 75% 4.0 mph S6.4 kmh S 16.0 mph25.7 kmh 29.80 in1009.1 mb 0.00 in0.0 mm 0.00 in0.0 mm 0.00 in0.0 mm
01:56 AM 63.1°F17.3°C 55.1°F12.8°C 75% 11.0 mph SSW17.7 kmh SSW 16.0 mph25.7 kmh 29.80 in1009.1 mb 0.00 in0.0 mm 0.00 in0.0 mm 0.00 in0.0 mm
01:58 AM 63.1°F17.3°C 55.1°F12.8°C 75% 6.0 mph S9.7 kmh S 16.0 mph25.7 kmh 29.80 in1009.1 mb 0.00 in0.0 mm 0.00 in0.0 mm 0.00 in0.0 mm
02:00 AM 63.1°F17.3°C 55.1°F12.8°C 75% 7.0 mph SSW11.3 kmh SSW 16.0 mph25.7 kmh 29.80 in1009.1 mb 0.00 in0.0 mm 0.00 in0.0 mm 0.00 in0.0 mm
02:02 AM 63.2°F17.3°C 55.2°F12.9°C 75% 5.0 mph S8.0 kmh S 7.0 mph11.3 kmh 29.80 in1009.1 mb 0.00 in0.0 mm 0.00 in0.0 mm 0.00 in0.0 mm
02:04 AM 63.2°F17.3°C 55.2°F12.9°C 75% 12.0 mph S19.3 kmh S 14.0 mph22.5 kmh 29.80 in1009.1 mb 0.00 in0.0 mm 0.00 in0.0 mm 0.00 in0.0 mm
02:06 AM 63.3°F17.4°C 55.3°F12.9°C 75% 7.0 mph ESE11.3 kmh ESE 14.0 mph22.5 kmh 29.79 in1008.8 mb 0.00 in0.0 mm 0.00 in0.0 mm 0.00 in0.0 mm
02:08 AM 63.3°F17.4°C 55.3°F12.9°C 75% 10.0 mph S16.1 kmh S 14.0 mph22.5 kmh 29.79 in1008.8 mb 0.00 in0.0 mm 0.00 in0.0 mm 0.00 in0.0 mm
02:10 AM 63.3°F17.4°C 55.3°F12.9°C 75% 10.0 mph S16.1 kmh S 14.0 mph22.5 kmh 29.79 in1008.8 mb 0.00 in0.0 mm 0.00 in0.0 mm 0.00 in0.0 mm
02:12 AM 63.4°F17.4°C 55.4°F13.0°C 75% 7.0 mph SW11.3 kmh SW 14.0 mph22.5 kmh 29.79 in1008.8 mb 0.00 in0.0 mm 0.00 in0.0 mm 0.00 in0.0 mm
02:14 AM 63.4°F17.4°C 55.4°F13.0°C 75% 5.0 mph SSE8.0 kmh SSE 15.0 mph24.1 kmh 29.79 in1008.8 mb 0.00 in0.0 mm 0.00 in0.0 mm 0.00 in0.0 mm
02:16 AM 63.4°F17.4°C 55.4°F13.0°C 75% 12.0 mph S19.3 kmh S 15.0 mph24.1 kmh 29.80 in1009.1 mb 0.00 in0.0 mm 0.00 in0.0 mm 0.00 in0.0 mm
02:18 AM 63.4°F17.4°C 55.4°F13.0°C 75% 10.0 mph S16.1 kmh S 15.0 mph24.1 kmh 29.79 in1008.8 mb 0.00 in0.0 mm 0.00 in0.0 mm 0.00 in0.0 mm
02:20 AM 63.4°F17.4°C 55.4°F13.0°C 75% 7.0 mph SW11.3 kmh SW 15.0 mph24.1 kmh 29.79 in1008.8 mb 0.00 in0.0 mm 0.00 in0.0 mm 0.00 in0.0 mm
02:22 AM 63.5°F17.5°C 55.4°F13.0°C 75% 11.0 mph S17.7 kmh S 15.0 mph24.1 kmh 29.79 in1008.8 mb 0.00 in0.0 mm 0.00 in0.0 mm 0.00 in0.0 mm
02:24 AM 63.5°F17.5°C 55.4°F13.0°C 75% 10.0 mph SSW16.1 kmh SSW 15.0 mph24.1 kmh 29.79 in1008.8 mb 0.00 in0.0 mm 0.00 in0.0 mm 0.00 in0.0 mm
02:26 AM 63.4°F17.4°C 55.4°F13.0°C 75% 6.0 mph SW9.7 kmh SW 15.0 mph24.1 kmh 29.79 in1008.8 mb 0.00 in0.0 mm 0.00 in0.0 mm 0.00 in0.0 mm
02:28 AM 63.4°F17.4°C 55.4°F13.0°C 75% 11.0 mph S17.7 kmh S 15.0 mph24.1 kmh 29.79 in1008.8 mb 0.00 in0.0 mm 0.00 in0.0 mm 0.00 in0.0 mm
02:30 AM 63.4°F17.4°C 55.4°F13.0°C 75% 9.0 mph SSW14.5 kmh SSW 15.0 mph24.1 kmh 29.79 in1008.8 mb 0.00 in0.0 mm 0.00 in0.0 mm 0.00 in0.0 mm
02:32 AM 63.4°F17.4°C 55.4°F13.0°C 75% 9.0 mph SSW14.5 kmh SSW 9.0 mph14.5 kmh 29.79 in1008.8 mb 0.00 in0.0 mm 0.00 in0.0 mm 0.00 in0.0 mm
02:34 AM 63.4°F17.4°C 55.4°F13.0°C 75% 4.0 mph SSE6.4 kmh SSE 11.0 mph17.7 kmh 29.79 in1008.8 mb 0.00 in0.0 mm 0.00 in0.0 mm 0.00 in0.0 mm
02:36 AM 63.3°F17.4°C 55.3°F12.9°C 75% 4.0 mph S6.4 kmh S 11.0 mph17.7 kmh 29.79 in1008.8 mb 0.00 in0.0 mm 0.00 in0.0 mm 0.00 in0.0 mm
02:38 AM 63.2°F17.3°C 55.2°F12.9°C 75% 8.0 mph SE12.9 kmh SE 15.0 mph24.1 kmh 29.79 in1008.8 mb 0.00 in0.0 mm 0.00 in0.0 mm 0.00 in0.0 mm
02:40 AM 63.2°F17.3°C 55.5°F13.1°C 76% 4.0 mph SW6.4 kmh SW 15.0 mph24.1 kmh 29.79 in1008.8 mb 0.00 in0.0 mm 0.00 in0.0 mm 0.00 in0.0 mm
02:42 AM 63.2°F17.3°C 55.2°F12.9°C 75% 4.0 mph SSW6.4 kmh SSW 15.0 mph24.1 kmh 29.79 in1008.8 mb 0.00 in0.0 mm 0.00 in0.0 mm 0.00 in0.0 mm
02:44 AM 63.1°F17.3°C 55.1°F12.8°C 75% 6.0 mph SSW9.7 kmh SSW 15.0 mph24.1 kmh 29.79 in1008.8 mb 0.00 in0.0 mm 0.00 in0.0 mm 0.00 in0.0 mm
02:46 AM 63.1°F17.3°C 55.4°F13.0°C 76% 9.0 mph SE14.5 kmh SE 15.0 mph24.1 kmh 29.79 in1008.8 mb 0.00 in0.0 mm 0.00 in0.0 mm 0.00 in0.0 mm
02:48 AM 63.0°F17.2°C 55.3°F12.9°C 76% 9.0 mph S14.5 kmh S 15.0 mph24.1 kmh 29.79 in1008.8 mb 0.00 in0.0 mm 0.00 in0.0 mm 0.00 in0.0 mm
02:50 AM 63.0°F17.2°C 55.3°F12.9°C 76% 10.0 mph SSW16.1 kmh SSW 15.0 mph24.1 kmh 29.79 in1008.8 mb 0.00 in0.0 mm 0.00 in0.0 mm 0.00 in0.0 mm
02:52 AM 63.0°F17.2°C 55.3°F12.9°C 76% 8.0 mph SSE12.9 kmh SSE 16.0 mph25.7 kmh 29.79 in1008.8 mb 0.00 in0.0 mm 0.00 in0.0 mm 0.00 in0.0 mm
02:54 AM 62.9°F17.2°C 55.2°F12.9°C 76% 4.0 mph SW6.4 kmh SW 16.0 mph25.7 kmh 29.79 in1008.8 mb 0.00 in0.0 mm 0.00 in0.0 mm 0.00 in0.0 mm
02:56 AM 62.9°F17.2°C 55.2°F12.9°C 76% 7.0 mph S11.3 kmh S 16.0 mph25.7 kmh 29.79 in1008.8 mb 0.00 in0.0 mm 0.00 in0.0 mm 0.00 in0.0 mm
02:58 AM 62.8°F17.1°C 55.1°F12.8°C 76% 9.0 mph SSW14.5 kmh SSW 16.0 mph25.7 kmh 29.79 in1008.8 mb 0.00 in0.0 mm 0.00 in0.0 mm 0.00 in0.0 mm
03:00 AM 62.8°F17.1°C 55.1°F12.8°C 76% 5.0 mph S8.0 kmh S 16.0 mph25.7 kmh 29.79 in1008.8 mb 0.00 in0.0 mm 0.00 in0.0 mm 0.00 in0.0 mm
03:02 AM 62.8°F17.1°C 55.1°F12.8°C 76% 8.0 mph SE12.9 kmh SE 8.0 mph12.9 kmh 29.79 in1008.8 mb 0.00 in0.0 mm 0.00 in0.0 mm 0.00 in0.0 mm
03:04 AM 62.8°F17.1°C 55.1°F12.8°C 76% 6.0 mph S9.7 kmh S 13.0 mph20.9 kmh 29.79 in1008.8 mb 0.00 in0.0 mm 0.00 in0.0 mm 0.00 in0.0 mm
03:06 AM 62.8°F17.1°C 55.1°F12.8°C 76% 7.0 mph SSW11.3 kmh SSW 17.0 mph27.4 kmh 29.79 in1008.8 mb 0.00 in0.0 mm 0.00 in0.0 mm 0.00 in0.0 mm
03:08 AM 62.8°F17.1°C 55.1°F12.8°C 76% 7.0 mph SSE11.3 kmh SSE 17.0 mph27.4 kmh 29.79 in1008.8 mb 0.00 in0.0 mm 0.00 in0.0 mm 0.00 in0.0 mm
03:10 AM 62.8°F17.1°C 55.1°F12.8°C 76% 4.0 mph S6.4 kmh S 17.0 mph27.4 kmh 29.78 in1008.5 mb 0.00 in0.0 mm 0.00 in0.0 mm 0.00 in0.0 mm
03:12 AM 62.8°F17.1°C 55.1°F12.8°C 76% 4.0 mph S6.4 kmh S 17.0 mph27.4 kmh 29.79 in1008.8 mb 0.00 in0.0 mm 0.00 in0.0 mm 0.00 in0.0 mm
03:14 AM 62.7°F17.1°C 55.0°F12.8°C 76% 10.0 mph SE16.1 kmh SE 17.0 mph27.4 kmh 29.79 in1008.8 mb 0.00 in0.0 mm 0.00 in0.0 mm 0.00 in0.0 mm
03:16 AM 62.8°F17.1°C 55.1°F12.8°C 76% 6.0 mph SSW9.7 kmh SSW 17.0 mph27.4 kmh 29.78 in1008.5 mb 0.00 in0.0 mm 0.00 in0.0 mm 0.00 in0.0 mm
03:18 AM 62.7°F17.1°C 55.0°F12.8°C 76% 5.0 mph S8.0 kmh S 17.0 mph27.4 kmh 29.79 in1008.8 mb 0.00 in0.0 mm 0.00 in0.0 mm 0.00 in0.0 mm
03:20 AM 62.6°F17.0°C 55.3°F12.9°C 77% 5.0 mph S8.0 kmh S 17.0 mph27.4 kmh 29.79 in1008.8 mb 0.00 in0.0 mm 0.00 in0.0 mm 0.00 in0.0 mm
03:22 AM 62.6°F17.0°C 54.9°F12.7°C 76% 6.0 mph SE9.7 kmh SE 17.0 mph27.4 kmh 29.79 in1008.8 mb 0.00 in0.0 mm 0.00 in0.0 mm 0.00 in0.0 mm
03:24 AM 62.4°F16.9°C 54.8°F12.7°C 76% 2.0 mph SSE3.2 kmh SSE 17.0 mph27.4 kmh 29.78 in1008.5 mb 0.00 in0.0 mm 0.00 in0.0 mm 0.00 in0.0 mm
03:26 AM 62.2°F16.8°C 54.6°F12.6°C 76% 3.0 mph SE4.8 kmh SE 17.0 mph27.4 kmh 29.78 in1008.5 mb 0.00 in0.0 mm 0.00 in0.0 mm 0.00 in0.0 mm
03:28 AM 62.0°F16.7°C 54.7°F12.6°C 77% 5.0 mph SSE8.0 kmh SSE 17.0 mph27.4 kmh 29.79 in1008.8 mb 0.00 in0.0 mm 0.00 in0.0 mm 0.00 in0.0 mm
03:30 AM 61.8°F16.6°C 54.5°F12.5°C 77% 2.0 mph SSE3.2 kmh SSE 17.0 mph27.4 kmh 29.78 in1008.5 mb 0.00 in0.0 mm 0.00 in0.0 mm 0.00 in0.0 mm
03:32 AM 61.6°F16.4°C 54.3°F12.4°C 77% 7.0 mph ESE11.3 kmh ESE 7.0 mph11.3 kmh 29.78 in1008.5 mb 0.00 in0.0 mm 0.00 in0.0 mm 0.00 in0.0 mm
03:34 AM 61.4°F16.3°C 54.5°F12.5°C 78% 6.0 mph SSE9.7 kmh SSE 8.0 mph12.9 kmh 29.78 in1008.5 mb 0.00 in0.0 mm 0.00 in0.0 mm 0.00 in0.0 mm
03:36 AM 61.3°F16.3°C 54.4°F12.4°C 78% 4.0 mph S6.4 kmh S 8.0 mph12.9 kmh 29.79 in1008.8 mb 0.00 in0.0 mm 0.00 in0.0 mm 0.00 in0.0 mm
03:38 AM 61.1°F16.2°C 54.2°F12.3°C 78% 5.0 mph S8.0 kmh S 8.0 mph12.9 kmh 29.79 in1008.8 mb 0.00 in0.0 mm 0.00 in0.0 mm 0.00 in0.0 mm
03:40 AM 61.0°F16.1°C 54.5°F12.5°C 79% 5.0 mph S8.0 kmh S 8.0 mph12.9 kmh 29.79 in1008.8 mb 0.00 in0.0 mm 0.00 in0.0 mm 0.00 in0.0 mm
03:42 AM 61.0°F16.1°C 54.5°F12.5°C 79% 5.0 mph S8.0 kmh S 8.0 mph12.9 kmh 29.79 in1008.8 mb 0.00 in0.0 mm 0.00 in0.0 mm 0.00 in0.0 mm
03:44 AM 60.9°F16.1°C 54.4°F12.4°C 79% 2.0 mph S3.2 kmh S 8.0 mph12.9 kmh 29.79 in1008.8 mb 0.00 in0.0 mm 0.00 in0.0 mm 0.00 in0.0 mm
03:46 AM 60.8°F16.0°C 54.3°F12.4°C 79% 2.0 mph SE3.2 kmh SE 8.0 mph12.9 kmh 29.79 in1008.8 mb 0.00 in0.0 mm 0.00 in0.0 mm 0.00 in0.0 mm
03:48 AM 60.7°F15.9°C 54.2°F12.3°C 79% 6.0 mph S9.7 kmh S 9.0 mph14.5 kmh 29.79 in1008.8 mb 0.00 in0.0 mm 0.00 in0.0 mm 0.00 in0.0 mm
03:50 AM 60.7°F15.9°C 54.2°F12.3°C 79% 6.0 mph S9.7 kmh S 9.0 mph14.5 kmh 29.79 in1008.8 mb 0.00 in0.0 mm 0.00 in0.0 mm 0.00 in0.0 mm
03:52 AM 60.7°F15.9°C 54.2°F12.3°C 79% 4.0 mph SSE6.4 kmh SSE 9.0 mph14.5 kmh 29.79 in1008.8 mb 0.00 in0.0 mm 0.00 in0.0 mm 0.00 in0.0 mm
03:54 AM 60.6°F15.9°C 54.4°F12.4°C 80% 2.0 mph SSE3.2 kmh SSE 9.0 mph14.5 kmh 29.79 in1008.8 mb 0.00 in0.0 mm 0.00 in0.0 mm 0.00 in0.0 mm
03:56 AM 60.5°F15.8°C 54.3°F12.4°C 80% 6.0 mph SSE9.7 kmh SSE 9.0 mph14.5 kmh 29.79 in1008.8 mb 0.00 in0.0 mm 0.00 in0.0 mm 0.00 in0.0 mm
03:58 AM 60.5°F15.8°C 54.3°F12.4°C 80% 4.0 mph SE6.4 kmh SE 9.0 mph14.5 kmh 29.78 in1008.5 mb 0.00 in0.0 mm 0.00 in0.0 mm 0.00 in0.0 mm
04:00 AM 60.5°F15.8°C 54.3°F12.4°C 80% 2.0 mph SSE3.2 kmh SSE 9.0 mph14.5 kmh 29.78 in1008.5 mb 0.00 in0.0 mm 0.00 in0.0 mm 0.00 in0.0 mm
04:02 AM 60.5°F15.8°C 54.3°F12.4°C 80% 5.0 mph S8.0 kmh S 7.0 mph11.3 kmh 29.78 in1008.5 mb 0.00 in0.0 mm 0.00 in0.0 mm 0.00 in0.0 mm
04:04 AM 60.4°F15.8°C 54.2°F12.3°C 80% 6.0 mph SSW9.7 kmh SSW 7.0 mph11.3 kmh 29.79 in1008.8 mb 0.00 in0.0 mm 0.00 in0.0 mm 0.00 in0.0 mm
04:06 AM 60.4°F15.8°C 54.2°F12.3°C 80% 4.0 mph S6.4 kmh S 7.0 mph11.3 kmh 29.78 in1008.5 mb 0.00 in0.0 mm 0.00 in0.0 mm 0.00 in0.0 mm
04:08 AM 60.4°F15.8°C 54.2°F12.3°C 80% 4.0 mph SSE6.4 kmh SSE 9.0 mph14.5 kmh 29.79 in1008.8 mb 0.00 in0.0 mm 0.00 in0.0 mm 0.00 in0.0 mm
04:10 AM 60.4°F15.8°C 54.2°F12.3°C 80% 2.0 mph SE3.2 kmh SE 9.0 mph14.5 kmh 29.78 in1008.5 mb 0.00 in0.0 mm 0.00 in0.0 mm 0.00 in0.0 mm
04:12 AM 60.5°F15.8°C 54.7°F12.6°C 81% 5.0 mph S8.0 kmh S 9.0 mph14.5 kmh 29.78 in1008.5 mb 0.00 in0.0 mm 0.00 in0.0 mm 0.00 in0.0 mm
04:14 AM 60.5°F15.8°C 54.7°F12.6°C 81% 6.0 mph SE9.7 kmh SE 9.0 mph14.5 kmh 29.78 in1008.5 mb 0.00 in0.0 mm 0.00 in0.0 mm 0.00 in0.0 mm
04:16 AM 60.5°F15.8°C 54.7°F12.6°C 81% 8.0 mph S12.9 kmh S 9.0 mph14.5 kmh 29.78 in1008.5 mb 0.00 in0.0 mm 0.00 in0.0 mm 0.00 in0.0 mm
04:18 AM 60.5°F15.8°C 54.3°F12.4°C 80% 4.0 mph S6.4 kmh S 9.0 mph14.5 kmh 29.78 in1008.5 mb 0.00 in0.0 mm 0.00 in0.0 mm 0.00 in0.0 mm
04:20 AM 60.6°F15.9°C 54.8°F12.7°C 81% 4.0 mph S6.4 kmh S 9.0 mph14.5 kmh 29.78 in1008.5 mb 0.00 in0.0 mm 0.00 in0.0 mm 0.00 in0.0 mm
04:22 AM 60.6°F15.9°C 54.8°F12.7°C 81% 6.0 mph SSW9.7 kmh SSW 9.0 mph14.5 kmh 29.78 in1008.5 mb 0.00 in0.0 mm 0.00 in0.0 mm 0.00 in0.0 mm
04:24 AM 60.7°F15.9°C 54.8°F12.7°C 81% 2.0 mph SE3.2 kmh SE 9.0 mph14.5 kmh 29.78 in1008.5 mb 0.00 in0.0 mm 0.00 in0.0 mm 0.00 in0.0 mm
04:26 AM 60.8°F16.0°C 54.6°F12.6°C 80% 5.0 mph S8.0 kmh S 10.0 mph16.1 kmh 29.78 in1008.5 mb 0.00 in0.0 mm 0.00 in0.0 mm 0.00 in0.0 mm
04:28 AM 61.0°F16.1°C 54.8°F12.7°C 80% 6.0 mph SW9.7 kmh SW 10.0 mph16.1 kmh 29.78 in1008.5 mb 0.00 in0.0 mm 0.00 in0.0 mm 0.00 in0.0 mm
04:30 AM 61.0°F16.1°C 54.8°F12.7°C 80% 7.0 mph S11.3 kmh S 10.0 mph16.1 kmh 29.78 in1008.5 mb 0.00 in0.0 mm 0.00 in0.0 mm 0.00 in0.0 mm
04:32 AM 61.2°F16.2°C 55.0°F12.8°C 80% 6.0 mph SE9.7 kmh SE 6.0 mph9.7 kmh 29.78 in1008.5 mb 0.00 in0.0 mm 0.00 in0.0 mm 0.00 in0.0 mm
04:34 AM 61.3°F16.3°C 55.1°F12.8°C 80% 2.0 mph S3.2 kmh S 8.0 mph12.9 kmh 29.78 in1008.5 mb 0.00 in0.0 mm 0.00 in0.0 mm 0.00 in0.0 mm
04:36 AM 61.4°F16.3°C 55.2°F12.9°C 80% 8.0 mph SSE12.9 kmh SSE 11.0 mph17.7 kmh 29.78 in1008.5 mb 0.00 in0.0 mm 0.00 in0.0 mm 0.00 in0.0 mm
04:38 AM 61.5°F16.4°C 55.3°F12.9°C 80% 8.0 mph SSE12.9 kmh SSE 11.0 mph17.7 kmh 29.78 in1008.5 mb 0.00 in0.0 mm 0.00 in0.0 mm 0.00 in0.0 mm
04:40 AM 61.5°F16.4°C 54.9°F12.7°C 79% 3.0 mph S4.8 kmh S 11.0 mph17.7 kmh 29.79 in1008.8 mb 0.00 in0.0 mm 0.00 in0.0 mm 0.00 in0.0 mm
04:42 AM 61.6°F16.4°C 55.0°F12.8°C 79% 6.0 mph S9.7 kmh S 14.0 mph22.5 kmh 29.79 in1008.8 mb 0.00 in0.0 mm 0.00 in0.0 mm 0.00 in0.0 mm
04:44 AM 61.8°F16.6°C 55.2°F12.9°C 79% 8.0 mph SSE12.9 kmh SSE 14.0 mph22.5 kmh 29.79 in1008.8 mb 0.00 in0.0 mm 0.00 in0.0 mm 0.00 in0.0 mm
04:46 AM 61.8°F16.6°C 55.2°F12.9°C 79% 7.0 mph S11.3 kmh S 17.0 mph27.4 kmh 29.79 in1008.8 mb 0.00 in0.0 mm 0.00 in0.0 mm 0.00 in0.0 mm
04:48 AM 61.9°F16.6°C 55.3°F12.9°C 79% 15.0 mph S24.1 kmh S 17.0 mph27.4 kmh 29.79 in1008.8 mb 0.00 in0.0 mm 0.00 in0.0 mm 0.00 in0.0 mm
04:50 AM 62.0°F16.7°C 55.4°F13.0°C 79% 4.0 mph S6.4 kmh S 17.0 mph27.4 kmh 29.79 in1008.8 mb 0.00 in0.0 mm 0.00 in0.0 mm 0.00 in0.0 mm
04:52 AM 62.0°F16.7°C 55.4°F13.0°C 79% 8.0 mph S12.9 kmh S 17.0 mph27.4 kmh 29.79 in1008.8 mb 0.00 in0.0 mm 0.00 in0.0 mm 0.00 in0.0 mm
04:54 AM 62.0°F16.7°C 55.4°F13.0°C 79% 10.0 mph S16.1 kmh S 17.0 mph27.4 kmh 29.79 in1008.8 mb 0.00 in0.0 mm 0.00 in0.0 mm 0.00 in0.0 mm
04:56 AM 62.1°F16.7°C 55.5°F13.1°C 79% 5.0 mph S8.0 kmh S 17.0 mph27.4 kmh 29.79 in1008.8 mb 0.00 in0.0 mm 0.00 in0.0 mm 0.00 in0.0 mm
04:58 AM 62.1°F16.7°C 55.5°F13.1°C 79% 4.0 mph S6.4 kmh S 17.0 mph27.4 kmh 29.79 in1008.8 mb 0.00 in0.0 mm 0.00 in0.0 mm 0.00 in0.0 mm
05:00 AM 62.1°F16.7°C 55.5°F13.1°C 79% 6.0 mph S9.7 kmh S 17.0 mph27.4 kmh 29.79 in1008.8 mb 0.00 in0.0 mm 0.00 in0.0 mm 0.00 in0.0 mm
05:02 AM 62.1°F16.7°C 55.5°F13.1°C 79% 9.0 mph S14.5 kmh S 9.0 mph14.5 kmh 29.79 in1008.8 mb 0.00 in0.0 mm 0.00 in0.0 mm 0.00 in0.0 mm
05:04 AM 62.1°F16.7°C 55.5°F13.1°C 79% 6.0 mph S9.7 kmh S 12.0 mph19.3 kmh 29.79 in1008.8 mb 0.00 in0.0 mm 0.00 in0.0 mm 0.00 in0.0 mm
05:06 AM 62.1°F16.7°C 55.5°F13.1°C 79% 9.0 mph S14.5 kmh S 12.0 mph19.3 kmh 29.79 in1008.8 mb 0.00 in0.0 mm 0.00 in0.0 mm 0.00 in0.0 mm
05:08 AM 62.3°F16.8°C 55.7°F13.2°C 79% 5.0 mph S8.0 kmh S 12.0 mph19.3 kmh 29.79 in1008.8 mb 0.00 in0.0 mm 0.00 in0.0 mm 0.00 in0.0 mm
05:10 AM 62.3°F16.8°C 55.7°F13.2°C 79% 6.0 mph SW9.7 kmh SW 12.0 mph19.3 kmh 29.79 in1008.8 mb 0.00 in0.0 mm 0.00 in0.0 mm 0.00 in0.0 mm
05:12 AM 62.3°F16.8°C 55.7°F13.2°C 79% 6.0 mph SSE9.7 kmh SSE 12.0 mph19.3 kmh 29.79 in1008.8 mb 0.00 in0.0 mm 0.00 in0.0 mm 0.00 in0.0 mm
05:14 AM 62.3°F16.8°C 55.7°F13.2°C 79% 7.0 mph S11.3 kmh S 13.0 mph20.9 kmh 29.79 in1008.8 mb 0.00 in0.0 mm 0.00 in0.0 mm 0.00 in0.0 mm
05:16 AM 62.3°F16.8°C 55.7°F13.2°C 79% 8.0 mph S12.9 kmh S 14.0 mph22.5 kmh 29.79 in1008.8 mb 0.00 in0.0 mm 0.00 in0.0 mm 0.00 in0.0 mm
05:18 AM 62.3°F16.8°C 55.7°F13.2°C 79% 7.0 mph S11.3 kmh S 14.0 mph22.5 kmh 29.79 in1008.8 mb 0.00 in0.0 mm 0.00 in0.0 mm 0.00 in0.0 mm
05:20 AM 62.4°F16.9°C 55.8°F13.2°C 79% 5.0 mph S8.0 kmh S 14.0 mph22.5 kmh 29.79 in1008.8 mb 0.00 in0.0 mm 0.00 in0.0 mm 0.00 in0.0 mm
05:22 AM 62.4°F16.9°C 55.8°F13.2°C 79% 4.0 mph SSW6.4 kmh SSW 14.0 mph22.5 kmh 29.80 in1009.1 mb 0.00 in0.0 mm 0.00 in0.0 mm 0.00 in0.0 mm
05:24 AM 62.4°F16.9°C 55.8°F13.2°C 79% 3.0 mph S4.8 kmh S 14.0 mph22.5 kmh 29.79 in1008.8 mb 0.00 in0.0 mm 0.00 in0.0 mm 0.00 in0.0 mm
05:26 AM 62.4°F16.9°C 55.8°F13.2°C 79% 10.0 mph SSW16.1 kmh SSW 14.0 mph22.5 kmh 29.79 in1008.8 mb 0.00 in0.0 mm 0.00 in0.0 mm 0.00 in0.0 mm
05:28 AM 62.4°F16.9°C 55.8°F13.2°C 79% 10.0 mph SSW16.1 kmh SSW 14.0 mph22.5 kmh 29.79 in1008.8 mb 0.00 in0.0 mm 0.00 in0.0 mm 0.00 in0.0 mm
05:30 AM 62.4°F16.9°C 55.8°F13.2°C 79% 8.0 mph S12.9 kmh S 15.0 mph24.1 kmh 29.79 in1008.8 mb 0.00 in0.0 mm 0.00 in0.0 mm 0.00 in0.0 mm
05:32 AM 62.4°F16.9°C 55.8°F13.2°C 79% 9.0 mph S14.5 kmh S 9.0 mph14.5 kmh 29.79 in1008.8 mb 0.00 in0.0 mm 0.00 in0.0 mm 0.00 in0.0 mm
05:34 AM 62.4°F16.9°C 55.8°F13.2°C 79% 7.0 mph S11.3 kmh S 9.0 mph14.5 kmh 29.79 in1008.8 mb 0.00 in0.0 mm 0.00 in0.0 mm 0.00 in0.0 mm
05:36 AM 62.4°F16.9°C 55.8°F13.2°C 79% 6.0 mph S9.7 kmh S 9.0 mph14.5 kmh 29.79 in1008.8 mb 0.00 in0.0 mm 0.00 in0.0 mm 0.00 in0.0 mm
05:38 AM 62.5°F16.9°C 55.9°F13.3°C 79% 8.0 mph SSW12.9 kmh SSW 9.0 mph14.5 kmh 29.79 in1008.8 mb 0.00 in0.0 mm 0.00 in0.0 mm 0.00 in0.0 mm
05:40 AM 62.4°F16.9°C 55.8°F13.2°C 79% 7.0 mph SSE11.3 kmh SSE 9.0 mph14.5 kmh 29.79 in1008.8 mb 0.00 in0.0 mm 0.00 in0.0 mm 0.00 in0.0 mm
05:42 AM 62.5°F16.9°C 55.9°F13.3°C 79% 7.0 mph SSE11.3 kmh SSE 15.0 mph24.1 kmh 29.79 in1008.8 mb 0.00 in0.0 mm 0.00 in0.0 mm 0.00 in0.0 mm
05:44 AM 62.5°F16.9°C 55.9°F13.3°C 79% 5.0 mph S8.0 kmh S 15.0 mph24.1 kmh 29.79 in1008.8 mb 0.00 in0.0 mm 0.00 in0.0 mm 0.00 in0.0 mm
05:46 AM 62.5°F16.9°C 55.9°F13.3°C 79% 6.0 mph SSE9.7 kmh SSE 15.0 mph24.1 kmh 29.79 in1008.8 mb 0.00 in0.0 mm 0.00 in0.0 mm 0.00 in0.0 mm
05:48 AM 62.6°F17.0°C 56.0°F13.3°C 79% 5.0 mph SW8.0 kmh SW 15.0 mph24.1 kmh 29.79 in1008.8 mb 0.00 in0.0 mm 0.00 in0.0 mm 0.00 in0.0 mm
05:50 AM 62.6°F17.0°C 56.0°F13.3°C 79% 7.0 mph S11.3 kmh S 15.0 mph24.1 kmh 29.80 in1009.1 mb 0.00 in0.0 mm 0.00 in0.0 mm 0.00 in0.0 mm
05:52 AM 62.6°F17.0°C 56.0°F13.3°C 79% 4.0 mph SSW6.4 kmh SSW 15.0 mph24.1 kmh 29.80 in1009.1 mb 0.00 in0.0 mm 0.00 in0.0 mm 0.00 in0.0 mm
05:54 AM 62.6°F17.0°C 56.0°F13.3°C 79% 5.0 mph S8.0 kmh S 15.0 mph24.1 kmh 29.80 in1009.1 mb 0.00 in0.0 mm 0.00 in0.0 mm 0.00 in0.0 mm
05:56 AM 62.6°F17.0°C 56.0°F13.3°C 79% 8.0 mph SW12.9 kmh SW 15.0 mph24.1 kmh 29.80 in1009.1 mb 0.00 in0.0 mm 0.00 in0.0 mm 0.00 in0.0 mm
05:58 AM 62.6°F17.0°C 56.0°F13.3°C 79% 6.0 mph S9.7 kmh S 15.0 mph24.1 kmh 29.80 in1009.1 mb 0.00 in0.0 mm 0.00 in0.0 mm 0.00 in0.0 mm
06:00 AM 62.6°F17.0°C 56.0°F13.3°C 79% 4.0 mph SSW6.4 kmh SSW 15.0 mph24.1 kmh 29.80 in1009.1 mb 0.00 in0.0 mm 0.00 in0.0 mm 0.00 in0.0 mm
06:02 AM 62.6°F17.0°C 56.0°F13.3°C 79% 8.0 mph SSW12.9 kmh SSW 8.0 mph12.9 kmh 29.80 in1009.1 mb 0.00 in0.0 mm 0.00 in0.0 mm 0.00 in0.0 mm
06:04 AM 62.6°F17.0°C 56.0°F13.3°C 79% 3.0 mph S4.8 kmh S 8.0 mph12.9 kmh 29.80 in1009.1 mb 0.00 in0.0 mm 0.00 in0.0 mm 0.00 in0.0 mm
06:06 AM 62.6°F17.0°C 56.0°F13.3°C 79% 4.0 mph SW6.4 kmh SW 8.0 mph12.9 kmh 29.80 in1009.1 mb 0.00 in0.0 mm 0.00 in0.0 mm 0.00 in0.0 mm
06:08 AM 62.6°F17.0°C 56.0°F13.3°C 79% 7.0 mph S11.3 kmh S 9.0 mph14.5 kmh 29.81 in1009.5 mb 0.00 in0.0 mm 0.00 in0.0 mm 0.00 in0.0 mm
06:10 AM 62.7°F17.1°C 56.1°F13.4°C 79% 7.0 mph S11.3 kmh S 9.0 mph14.5 kmh 29.81 in1009.5 mb 0.00 in0.0 mm 0.00 in0.0 mm 0.00 in0.0 mm
06:12 AM 62.8°F17.1°C 56.2°F13.4°C 79% 5.0 mph S8.0 kmh S 9.0 mph14.5 kmh 29.80 in1009.1 mb 0.00 in0.0 mm 0.00 in0.0 mm 0.00 in0.0 mm
06:14 AM 62.7°F17.1°C 56.1°F13.4°C 79% 3.0 mph S4.8 kmh S 9.0 mph14.5 kmh 29.81 in1009.5 mb 0.00 in0.0 mm 0.00 in0.0 mm 0.00 in0.0 mm
06:16 AM 62.7°F17.1°C 56.1°F13.4°C 79% 5.0 mph S8.0 kmh S 11.0 mph17.7 kmh 29.81 in1009.5 mb 0.00 in0.0 mm 0.00 in0.0 mm 0.00 in0.0 mm
06:18 AM 62.7°F17.1°C 56.1°F13.4°C 79% 4.0 mph SE6.4 kmh SE 11.0 mph17.7 kmh 29.81 in1009.5 mb 0.00 in0.0 mm 0.00 in0.0 mm 0.00 in0.0 mm
06:20 AM 62.7°F17.1°C 56.1°F13.4°C 79% 4.0 mph S6.4 kmh S 11.0 mph17.7 kmh 29.81 in1009.5 mb 0.00 in0.0 mm 0.00 in0.0 mm 0.00 in0.0 mm
06:22 AM 62.7°F17.1°C 56.1°F13.4°C 79% 3.0 mph SW4.8 kmh SW 11.0 mph17.7 kmh 29.82 in1009.8 mb 0.00 in0.0 mm 0.00 in0.0 mm 0.00 in0.0 mm
06:24 AM 62.7°F17.1°C 56.1°F13.4°C 79% 6.0 mph SSE9.7 kmh SSE 11.0 mph17.7 kmh 29.81 in1009.5 mb 0.00 in0.0 mm 0.00 in0.0 mm 0.00 in0.0 mm
06:26 AM 62.7°F17.1°C 56.1°F13.4°C 79% 6.0 mph SSW9.7 kmh SSW 11.0 mph17.7 kmh 29.81 in1009.5 mb 0.00 in0.0 mm 0.00 in0.0 mm 0.00 in0.0 mm
06:28 AM 62.7°F17.1°C 56.1°F13.4°C 79% 3.0 mph S4.8 kmh S 11.0 mph17.7 kmh 29.82 in1009.8 mb 0.00 in0.0 mm 0.00 in0.0 mm 0.00 in0.0 mm
06:30 AM 62.7°F17.1°C 56.1°F13.4°C 79% 6.0 mph S9.7 kmh S 11.0 mph17.7 kmh 29.82 in1009.8 mb 0.00 in0.0 mm 0.00 in0.0 mm 0.00 in0.0 mm
06:32 AM 62.6°F17.0°C 56.0°F13.3°C 79% 8.0 mph SSW12.9 kmh SSW 8.0 mph12.9 kmh 29.82 in1009.8 mb 0.00 in0.0 mm 0.00 in0.0 mm 0.00 in0.0 mm
06:34 AM 62.7°F17.1°C 56.1°F13.4°C 79% 4.0 mph S6.4 kmh S 8.0 mph12.9 kmh 29.82 in1009.8 mb 0.00 in0.0 mm 0.00 in0.0 mm 0.00 in0.0 mm
06:36 AM 62.7°F17.1°C 56.1°F13.4°C 79% 5.0 mph SW8.0 kmh SW 8.0 mph12.9 kmh 29.82 in1009.8 mb 0.00 in0.0 mm 0.00 in0.0 mm 0.00 in0.0 mm
06:38 AM 62.6°F17.0°C 56.0°F13.3°C 79% 6.0 mph S9.7 kmh S 8.0 mph12.9 kmh 29.82 in1009.8 mb 0.00 in0.0 mm 0.00 in0.0 mm 0.00 in0.0 mm
06:40 AM 62.7°F17.1°C 56.1°F13.4°C 79% 4.0 mph SSW6.4 kmh SSW 8.0 mph12.9 kmh 29.82 in1009.8 mb 0.00 in0.0 mm 0.00 in0.0 mm 0.00 in0.0 mm
06:42 AM 62.7°F17.1°C 56.5°F13.6°C 80% 8.0 mph S12.9 kmh S 8.0 mph12.9 kmh 29.82 in1009.8 mb 0.00 in0.0 mm 0.00 in0.0 mm 0.00 in0.0 mm
06:44 AM 62.7°F17.1°C 56.5°F13.6°C 80% 4.0 mph S6.4 kmh S 8.0 mph12.9 kmh 29.82 in1009.8 mb 0.00 in0.0 mm 0.00 in0.0 mm 0.00 in0.0 mm
06:46 AM 62.7°F17.1°C 56.5°F13.6°C 80% 4.0 mph SW6.4 kmh SW 8.0 mph12.9 kmh 29.83 in1010.2 mb 0.00 in0.0 mm 0.00 in0.0 mm 0.00 in0.0 mm
06:48 AM 62.7°F17.1°C 56.1°F13.4°C 79% 3.0 mph S4.8 kmh S 8.0 mph12.9 kmh 29.82 in1009.8 mb 0.00 in0.0 mm 0.00 in0.0 mm 0.00 in0.0 mm
06:50 AM 62.7°F17.1°C 56.5°F13.6°C 80% 4.0 mph S6.4 kmh S 8.0 mph12.9 kmh 29.82 in1009.8 mb 0.00 in0.0 mm 0.00 in0.0 mm 0.00 in0.0 mm
06:52 AM 62.7°F17.1°C 56.5°F13.6°C 80% 5.0 mph S8.0 kmh S 10.0 mph16.1 kmh 29.82 in1009.8 mb 0.00 in0.0 mm 0.00 in0.0 mm 0.00 in0.0 mm
06:54 AM 62.7°F17.1°C 56.5°F13.6°C 80% 4.0 mph S6.4 kmh S 10.0 mph16.1 kmh 29.83 in1010.2 mb 0.00 in0.0 mm 0.00 in0.0 mm 0.00 in0.0 mm
06:56 AM 62.7°F17.1°C 56.5°F13.6°C 80% 3.0 mph S4.8 kmh S 10.0 mph16.1 kmh 29.83 in1010.2 mb 0.00 in0.0 mm 0.00 in0.0 mm 0.00 in0.0 mm
06:58 AM 62.7°F17.1°C 56.5°F13.6°C 80% 3.0 mph S4.8 kmh S 10.0 mph16.1 kmh 29.83 in1010.2 mb 0.00 in0.0 mm 0.00 in0.0 mm 0.00 in0.0 mm
07:00 AM 62.7°F17.1°C 56.5°F13.6°C 80% 4.0 mph SSW6.4 kmh SSW 10.0 mph16.1 kmh 29.83 in1010.2 mb 0.00 in0.0 mm 0.00 in0.0 mm 0.00 in0.0 mm
07:02 AM 62.7°F17.1°C 56.5°F13.6°C 80% 5.0 mph S8.0 kmh S 5.0 mph8.0 kmh 29.83 in1010.2 mb 0.00 in0.0 mm 0.00 in0.0 mm 0.00 in0.0 mm
07:04 AM 62.7°F17.1°C 56.5°F13.6°C 80% 4.0 mph S6.4 kmh S 9.0 mph14.5 kmh 29.83 in1010.2 mb 0.00 in0.0 mm 0.00 in0.0 mm 0.00 in0.0 mm
07:06 AM 62.7°F17.1°C 56.5°F13.6°C 80% 6.0 mph SW9.7 kmh SW 9.0 mph14.5 kmh 29.83 in1010.2 mb 0.00 in0.0 mm 0.00 in0.0 mm 0.00 in0.0 mm
07:08 AM 62.7°F17.1°C 56.5°F13.6°C 80% 5.0 mph SW8.0 kmh SW 9.0 mph14.5 kmh 29.83 in1010.2 mb 0.00 in0.0 mm 0.00 in0.0 mm 0.00 in0.0 mm
07:10 AM 62.6°F17.0°C 56.4°F13.6°C 80% 6.0 mph SSW9.7 kmh SSW 9.0 mph14.5 kmh 29.84 in1010.5 mb 0.00 in0.0 mm 0.00 in0.0 mm 0.00 in0.0 mm
07:12 AM 62.7°F17.1°C 56.5°F13.6°C 80% 6.0 mph SSW9.7 kmh SSW 9.0 mph14.5 kmh 29.84 in1010.5 mb 0.00 in0.0 mm 0.00 in0.0 mm 0.00 in0.0 mm
07:14 AM 62.6°F17.0°C 56.4°F13.6°C 80% 4.0 mph SSW6.4 kmh SSW 9.0 mph14.5 kmh 29.84 in1010.5 mb 0.00 in0.0 mm 0.00 in0.0 mm 0.00 in0.0 mm
07:16 AM 62.7°F17.1°C 56.5°F13.6°C 80% 5.0 mph S8.0 kmh S 9.0 mph14.5 kmh 29.84 in1010.5 mb 0.00 in0.0 mm 0.00 in0.0 mm 0.00 in0.0 mm
07:18 AM 62.7°F17.1°C 56.5°F13.6°C 80% 5.0 mph SSW8.0 kmh SSW 9.0 mph14.5 kmh 29.84 in1010.5 mb 0.00 in0.0 mm 0.00 in0.0 mm 0.00 in0.0 mm
07:20 AM 62.7°F17.1°C 56.5°F13.6°C 80% 3.0 mph SW4.8 kmh SW 9.0 mph14.5 kmh 29.84 in1010.5 mb 0.00 in0.0 mm 0.00 in0.0 mm 0.00 in0.0 mm
07:22 AM 62.6°F17.0°C 56.4°F13.6°C 80% 3.0 mph S4.8 kmh S 9.0 mph14.5 kmh 29.84 in1010.5 mb 0.00 in0.0 mm 0.00 in0.0 mm 0.00 in0.0 mm
07:24 AM 62.6°F17.0°C 56.4°F13.6°C 80% 3.0 mph S4.8 kmh S 9.0 mph14.5 kmh 29.84 in1010.5 mb 0.00 in0.0 mm 0.00 in0.0 mm 0.00 in0.0 mm
07:26 AM 62.6°F17.0°C 56.4°F13.6°C 80% 5.0 mph SSW8.0 kmh SSW 9.0 mph14.5 kmh 29.85 in1010.8 mb 0.00 in0.0 mm 0.00 in0.0 mm 0.00 in0.0 mm
07:28 AM 62.7°F17.1°C 56.5°F13.6°C 80% 3.0 mph S4.8 kmh S 9.0 mph14.5 kmh 29.85 in1010.8 mb 0.00 in0.0 mm 0.00 in0.0 mm 0.00 in0.0 mm
07:30 AM 62.6°F17.0°C 56.4°F13.6°C 80% 4.0 mph SSW6.4 kmh SSW 9.0 mph14.5 kmh 29.85 in1010.8 mb 0.00 in0.0 mm 0.00 in0.0 mm 0.00 in0.0 mm
07:32 AM 62.6°F17.0°C 56.4°F13.6°C 80% 6.0 mph SW9.7 kmh SW 6.0 mph9.7 kmh 29.85 in1010.8 mb 0.00 in0.0 mm 0.00 in0.0 mm 0.00 in0.0 mm
07:34 AM 62.6°F17.0°C 56.4°F13.6°C 80% 5.0 mph S8.0 kmh S 7.0 mph11.3 kmh 29.85 in1010.8 mb 0.00 in0.0 mm 0.00 in0.0 mm 0.00 in0.0 mm
07:36 AM 62.6°F17.0°C 56.4°F13.6°C 80% 3.0 mph SSW4.8 kmh SSW 7.0 mph11.3 kmh 29.85 in1010.8 mb 0.00 in0.0 mm 0.00 in0.0 mm 0.00 in0.0 mm
07:38 AM 62.6°F17.0°C 56.4°F13.6°C 80% 2.0 mph S3.2 kmh S 7.0 mph11.3 kmh 29.85 in1010.8 mb 0.00 in0.0 mm 0.00 in0.0 mm 0.00 in0.0 mm
07:40 AM 62.6°F17.0°C 56.4°F13.6°C 80% 2.0 mph SSW3.2 kmh SSW 7.0 mph11.3 kmh 29.85 in1010.8 mb 0.00 in0.0 mm 0.00 in0.0 mm 0.00 in0.0 mm
07:42 AM 62.6°F17.0°C 56.4°F13.6°C 80% 5.0 mph SSW8.0 kmh SSW 7.0 mph11.3 kmh 29.85 in1010.8 mb 0.00 in0.0 mm 0.00 in0.0 mm 0.00 in0.0 mm
07:44 AM 62.6°F17.0°C 56.4°F13.6°C 80% 2.0 mph S3.2 kmh S 7.0 mph11.3 kmh 29.85 in1010.8 mb 0.00 in0.0 mm 0.00 in0.0 mm 0.00 in0.0 mm
07:46 AM 62.6°F17.0°C 56.7°F13.7°C 81% 4.0 mph SSW6.4 kmh SSW 7.0 mph11.3 kmh 29.86 in1011.2 mb 0.00 in0.0 mm 0.00 in0.0 mm 0.00 in0.0 mm
07:48 AM 62.6°F17.0°C 56.4°F13.6°C 80% 5.0 mph SW8.0 kmh SW 7.0 mph11.3 kmh 29.86 in1011.2 mb 0.00 in0.0 mm 0.00 in0.0 mm 0.00 in0.0 mm
07:50 AM 62.6°F17.0°C 56.4°F13.6°C 80% 4.0 mph S6.4 kmh S 7.0 mph11.3 kmh 29.86 in1011.2 mb 0.00 in0.0 mm 0.00 in0.0 mm 0.00 in0.0 mm
07:52 AM 62.6°F17.0°C 56.4°F13.6°C 80% 3.0 mph SSW4.8 kmh SSW 7.0 mph11.3 kmh 29.86 in1011.2 mb 0.00 in0.0 mm 0.00 in0.0 mm 0.00 in0.0 mm
07:54 AM 62.6°F17.0°C 56.4°F13.6°C 80% 3.0 mph SSW4.8 kmh SSW 7.0 mph11.3 kmh 29.86 in1011.2 mb 0.00 in0.0 mm 0.00 in0.0 mm 0.00 in0.0 mm
07:56 AM 62.6°F17.0°C 56.4°F13.6°C 80% 3.0 mph S4.8 kmh S 7.0 mph11.3 kmh 29.86 in1011.2 mb 0.00 in0.0 mm 0.00 in0.0 mm 0.00 in0.0 mm
07:58 AM 62.6°F17.0°C 56.4°F13.6°C 80% 3.0 mph S4.8 kmh S 7.0 mph11.3 kmh 29.86 in1011.2 mb 0.00 in0.0 mm 0.00 in0.0 mm 0.00 in0.0 mm
08:00 AM 62.7°F17.1°C 56.8°F13.8°C 81% 2.0 mph S3.2 kmh S 7.0 mph11.3 kmh 29.86 in1011.2 mb 0.00 in0.0 mm 0.00 in0.0 mm 0.00 in0.0 mm
08:02 AM 62.7°F17.1°C 56.8°F13.8°C 81% 4.0 mph S6.4 kmh S 4.0 mph6.4 kmh 29.86 in1011.2 mb 0.00 in0.0 mm 0.00 in0.0 mm 0.00 in0.0 mm
08:04 AM 62.8°F17.1°C 56.6°F13.7°C 80% 3.0 mph S4.8 kmh S 5.0 mph8.0 kmh 29.86 in1011.2 mb 0.00 in0.0 mm 0.00 in0.0 mm 0.00 in0.0 mm
08:06 AM 62.8°F17.1°C 56.9°F13.8°C 81% 3.0 mph S4.8 kmh S 5.0 mph8.0 kmh 29.86 in1011.2 mb 0.00 in0.0 mm 0.00 in0.0 mm 0.00 in0.0 mm
08:08 AM 62.8°F17.1°C 56.9°F13.8°C 81% 2.0 mph S3.2 kmh S 5.0 mph8.0 kmh 29.86 in1011.2 mb 0.00 in0.0 mm 0.00 in0.0 mm 0.00 in0.0 mm
08:10 AM 62.9°F17.2°C 56.6°F13.7°C 80% 2.0 mph SSW3.2 kmh SSW 6.0 mph9.7 kmh 29.86 in1011.2 mb 0.00 in0.0 mm 0.00 in0.0 mm 0.00 in0.0 mm
08:12 AM 62.9°F17.2°C 56.6°F13.7°C 80% 1.0 mph S1.6 kmh S 6.0 mph9.7 kmh 29.86 in1011.2 mb 0.00 in0.0 mm 0.00 in0.0 mm 0.00 in0.0 mm
08:14 AM 62.9°F17.2°C 56.6°F13.7°C 80% 3.0 mph SSW4.8 kmh SSW 6.0 mph9.7 kmh 29.87 in1011.5 mb 0.00 in0.0 mm 0.00 in0.0 mm 0.00 in0.0 mm
08:16 AM 62.9°F17.2°C 56.6°F13.7°C 80% 1.0 mph SSW1.6 kmh SSW 6.0 mph9.7 kmh 29.86 in1011.2 mb 0.00 in0.0 mm 0.00 in0.0 mm 0.00 in0.0 mm
08:18 AM 63.0°F17.2°C 56.7°F13.7°C 80% 3.0 mph SSW4.8 kmh SSW 6.0 mph9.7 kmh 29.87 in1011.5 mb 0.00 in0.0 mm 0.00 in0.0 mm 0.00 in0.0 mm
08:20 AM 63.0°F17.2°C 56.7°F13.7°C 80% 3.0 mph SSW4.8 kmh SSW 6.0 mph9.7 kmh 29.87 in1011.5 mb 0.00 in0.0 mm 0.00 in0.0 mm 0.00 in0.0 mm
08:21 AM 63.0°F17.2°C 56.7°F13.7°C 80% 2.0 mph SSW3.2 kmh SSW 6.0 mph9.7 kmh 29.87 in1011.5 mb 0.00 in0.0 mm 0.00 in0.0 mm 0.00 in0.0 mm
08:24 AM 63.0°F17.2°C 56.7°F13.7°C 80% 3.0 mph SSW4.8 kmh SSW 6.0 mph9.7 kmh 29.87 in1011.5 mb 0.00 in0.0 mm 0.00 in0.0 mm 0.00 in0.0 mm
08:26 AM 63.0°F17.2°C 56.7°F13.7°C 80% 3.0 mph SSW4.8 kmh SSW 6.0 mph9.7 kmh 29.87 in1011.5 mb 0.00 in0.0 mm 0.00 in0.0 mm 0.00 in0.0 mm
08:28 AM 63.0°F17.2°C 56.7°F13.7°C 80% 3.0 mph SSW4.8 kmh SSW 6.0 mph9.7 kmh 29.87 in1011.5 mb 0.00 in0.0 mm 0.00 in0.0 mm 0.00 in0.0 mm
08:30 AM 63.0°F17.2°C 56.7°F13.7°C 80% 3.0 mph SSW4.8 kmh SSW 6.0 mph9.7 kmh 29.87 in1011.5 mb 0.00 in0.0 mm 0.00 in0.0 mm 0.00 in0.0 mm
08:32 AM 63.1°F17.3°C 56.8°F13.8°C 80% 4.0 mph SSW6.4 kmh SSW 4.0 mph6.4 kmh 29.87 in1011.5 mb 0.00 in0.0 mm 0.00 in0.0 mm 0.00 in0.0 mm
08:34 AM 63.1°F17.3°C 56.8°F13.8°C 80% 3.0 mph SW4.8 kmh SW 6.0 mph9.7 kmh 29.87 in1011.5 mb 0.00 in0.0 mm 0.00 in0.0 mm 0.00 in0.0 mm
08:36 AM 63.1°F17.3°C 56.8°F13.8°C 80% 4.0 mph SW6.4 kmh SW 6.0 mph9.7 kmh 29.87 in1011.5 mb 0.00 in0.0 mm 0.00 in0.0 mm 0.00 in0.0 mm
08:38 AM 63.1°F17.3°C 56.8°F13.8°C 80% 3.0 mph SW4.8 kmh SW 6.0 mph9.7 kmh 29.87 in1011.5 mb 0.00 in0.0 mm 0.00 in0.0 mm 0.00 in0.0 mm
08:40 AM 63.1°F17.3°C 56.8°F13.8°C 80% 3.0 mph SSW4.8 kmh SSW 6.0 mph9.7 kmh 29.87 in1011.5 mb 0.00 in0.0 mm 0.00 in0.0 mm 0.00 in0.0 mm
08:42 AM 63.2°F17.3°C 56.9°F13.8°C 80% 2.0 mph SSW3.2 kmh SSW 6.0 mph9.7 kmh 29.87 in1011.5 mb 0.00 in0.0 mm 0.00 in0.0 mm 0.00 in0.0 mm
08:44 AM 63.2°F17.3°C 56.9°F13.8°C 80% 3.0 mph SW4.8 kmh SW 6.0 mph9.7 kmh 29.87 in1011.5 mb 0.00 in0.0 mm 0.00 in0.0 mm 0.00 in0.0 mm
08:46 AM 63.3°F17.4°C 57.0°F13.9°C 80% 3.0 mph SW4.8 kmh SW 6.0 mph9.7 kmh 29.87 in1011.5 mb 0.00 in0.0 mm 0.00 in0.0 mm 0.00 in0.0 mm
08:48 AM 63.3°F17.4°C 57.0°F13.9°C 80% 3.0 mph SW4.8 kmh SW 6.0 mph9.7 kmh 29.88 in1011.9 mb 0.00 in0.0 mm 0.00 in0.0 mm 0.00 in0.0 mm
08:50 AM 63.3°F17.4°C 57.0°F13.9°C 80% 1.0 mph SSW1.6 kmh SSW 6.0 mph9.7 kmh 29.88 in1011.9 mb 0.00 in0.0 mm 0.00 in0.0 mm 0.00 in0.0 mm
08:52 AM 63.3°F17.4°C 57.0°F13.9°C 80% 3.0 mph SW4.8 kmh SW 6.0 mph9.7 kmh 29.88 in1011.9 mb 0.00 in0.0 mm 0.00 in0.0 mm 0.00 in0.0 mm
08:54 AM 63.4°F17.4°C 57.1°F13.9°C 80% 4.0 mph SW6.4 kmh SW 6.0 mph9.7 kmh 29.88 in1011.9 mb 0.00 in0.0 mm 0.00 in0.0 mm 0.00 in0.0 mm
08:56 AM 63.4°F17.4°C 57.1°F13.9°C 80% 3.0 mph SSW4.8 kmh SSW 6.0 mph9.7 kmh 29.88 in1011.9 mb 0.00 in0.0 mm 0.00 in0.0 mm 0.00 in0.0 mm
08:58 AM 63.4°F17.4°C 57.1°F13.9°C 80% 2.0 mph SSW3.2 kmh SSW 6.0 mph9.7 kmh 29.88 in1011.9 mb 0.00 in0.0 mm 0.00 in0.0 mm 0.00 in0.0 mm
09:00 AM 63.4°F17.4°C 57.1°F13.9°C 80% 3.0 mph SW4.8 kmh SW 6.0 mph9.7 kmh 29.88 in1011.9 mb 0.00 in0.0 mm 0.00 in0.0 mm 0.00 in0.0 mm
09:02 AM 63.4°F17.4°C 57.1°F13.9°C 80% 4.0 mph SSW6.4 kmh SSW 4.0 mph6.4 kmh 29.88 in1011.9 mb 0.00 in0.0 mm 0.00 in0.0 mm 0.00 in0.0 mm
09:04 AM 63.4°F17.4°C 57.1°F13.9°C 80% 3.0 mph WSW4.8 kmh WSW 5.0 mph8.0 kmh 29.89 in1012.2 mb 0.00 in0.0 mm 0.00 in0.0 mm 0.00 in0.0 mm
09:06 AM 63.4°F17.4°C 57.1°F13.9°C 80% 3.0 mph WSW4.8 kmh WSW 6.0 mph9.7 kmh 29.89 in1012.2 mb 0.00 in0.0 mm 0.00 in0.0 mm 0.00 in0.0 mm
09:08 AM 63.5°F17.5°C 57.2°F14.0°C 80% 1.0 mph WSW1.6 kmh WSW 6.0 mph9.7 kmh 29.88 in1011.9 mb 0.00 in0.0 mm 0.00 in0.0 mm 0.00 in0.0 mm
09:10 AM 63.5°F17.5°C 57.2°F14.0°C 80% 2.0 mph WSW3.2 kmh WSW 6.0 mph9.7 kmh 29.88 in1011.9 mb 0.00 in0.0 mm 0.00 in0.0 mm 0.00 in0.0 mm
09:12 AM 63.5°F17.5°C 57.2°F14.0°C 80% 3.0 mph WSW4.8 kmh WSW 7.0 mph11.3 kmh 29.88 in1011.9 mb 0.00 in0.0 mm 0.00 in0.0 mm 0.00 in0.0 mm
09:14 AM 63.6°F17.6°C 57.3°F14.1°C 80% 4.0 mph SW6.4 kmh SW 7.0 mph11.3 kmh 29.89 in1012.2 mb 0.00 in0.0 mm 0.00 in0.0 mm 0.00 in0.0 mm
09:16 AM 63.6°F17.6°C 57.3°F14.1°C 80% 3.0 mph SW4.8 kmh SW 7.0 mph11.3 kmh 29.89 in1012.2 mb 0.00 in0.0 mm 0.00 in0.0 mm 0.00 in0.0 mm
09:18 AM 63.7°F17.6°C 57.1°F13.9°C 79% 7.0 mph SW11.3 kmh SW 7.0 mph11.3 kmh 29.88 in1011.9 mb 0.00 in0.0 mm 0.00 in0.0 mm 0.00 in0.0 mm
09:20 AM 63.7°F17.6°C 57.1°F13.9°C 79% 2.0 mph SW3.2 kmh SW 7.0 mph11.3 kmh 29.88 in1011.9 mb 0.00 in0.0 mm 0.00 in0.0 mm 0.00 in0.0 mm
09:22 AM 63.8°F17.7°C 57.2°F14.0°C 79% 4.0 mph WSW6.4 kmh WSW 8.0 mph12.9 kmh 29.89 in1012.2 mb 0.00 in0.0 mm 0.00 in0.0 mm 0.00 in0.0 mm
09:24 AM 63.8°F17.7°C 57.2°F14.0°C 79% 3.0 mph WSW4.8 kmh WSW 8.0 mph12.9 kmh 29.89 in1012.2 mb 0.00 in0.0 mm 0.00 in0.0 mm 0.00 in0.0 mm
09:26 AM 63.8°F17.7°C 57.2°F14.0°C 79% 3.0 mph WSW4.8 kmh WSW 8.0 mph12.9 kmh 29.89 in1012.2 mb 0.00 in0.0 mm 0.00 in0.0 mm 0.00 in0.0 mm
09:28 AM 63.8°F17.7°C 57.2°F14.0°C 79% 6.0 mph SW9.7 kmh SW 8.0 mph12.9 kmh 29.90 in1012.5 mb 0.00 in0.0 mm 0.00 in0.0 mm 0.00 in0.0 mm
09:30 AM 63.9°F17.7°C 57.3°F14.1°C 79% 4.0 mph WSW6.4 kmh WSW 8.0 mph12.9 kmh 29.90 in1012.5 mb 0.00 in0.0 mm 0.00 in0.0 mm 0.00 in0.0 mm
02:58 PM 35.5°F1.9°C 28.7°F-1.8°C 76% 9.0 mph WNW14.5 kmh WNW 20.0 mph32.2 kmh 30.22 in1023.4 mb 0.00 in0.0 mm 0.00 in0.0 mm 0.00 in0.0 mm
03:00 PM 35.5°F1.9°C 28.7°F-1.8°C 76% 11.0 mph NW17.7 kmh NW 21.0 mph33.8 kmh 30.23 in1023.7 mb 0.00 in0.0 mm 0.00 in0.0 mm 0.00 in0.0 mm
03:02 PM 35.4°F1.9°C 28.6°F-1.9°C 76% 27.0 mph NW43.5 kmh NW 27.0 mph43.5 kmh 30.23 in1023.7 mb 0.00 in0.0 mm 0.00 in0.0 mm 0.00 in0.0 mm
03:04 PM 35.4°F1.9°C 28.6°F-1.9°C 76% 13.0 mph W20.9 kmh W 24.0 mph38.6 kmh 30.23 in1023.7 mb 0.00 in0.0 mm 0.00 in0.0 mm 0.00 in0.0 mm
03:06 PM 35.3°F1.8°C 28.5°F-1.9°C 76% 13.0 mph NNW20.9 kmh NNW 33.0 mph53.1 kmh 30.24 in1024.0 mb 0.00 in0.0 mm 0.00 in0.0 mm 0.00 in0.0 mm
03:08 PM 35.4°F1.9°C 28.3°F-2.1°C 75% 13.0 mph N20.9 kmh N 33.0 mph53.1 kmh 30.23 in1023.7 mb 0.00 in0.0 mm 0.00 in0.0 mm 0.00 in0.0 mm
03:10 PM 35.3°F1.8°C 28.2°F-2.1°C 75% 11.0 mph N17.7 kmh N 33.0 mph53.1 kmh 30.23 in1023.7 mb 0.00 in0.0 mm 0.00 in0.0 mm 0.00 in0.0 mm
03:12 PM 35.3°F1.8°C 28.2°F-2.1°C 75% 23.0 mph NNE37.0 kmh NNE 33.0 mph53.1 kmh 30.24 in1024.0 mb 0.00 in0.0 mm 0.00 in0.0 mm 0.00 in0.0 mm
03:14 PM 35.3°F1.8°C 28.2°F-2.1°C 75% 12.0 mph N19.3 kmh N 33.0 mph53.1 kmh 30.24 in1024.0 mb 0.00 in0.0 mm 0.00 in0.0 mm 0.00 in0.0 mm
03:16 PM 35.3°F1.8°C 28.2°F-2.1°C 75% 10.0 mph NW16.1 kmh NW 33.0 mph53.1 kmh 30.24 in1024.0 mb 0.00 in0.0 mm 0.00 in0.0 mm 0.00 in0.0 mm
03:18 PM 35.3°F1.8°C 28.2°F-2.1°C 75% 6.0 mph NW9.7 kmh NW 33.0 mph53.1 kmh 30.23 in1023.7 mb 0.00 in0.0 mm 0.00 in0.0 mm 0.00 in0.0 mm
03:20 PM 35.4°F1.9°C 28.6°F-1.9°C 76% 20.0 mph NW32.2 kmh NW 33.0 mph53.1 kmh 30.24 in1024.0 mb 0.00 in0.0 mm 0.00 in0.0 mm 0.00 in0.0 mm
03:22 PM 35.3°F1.8°C 28.2°F-2.1°C 75% 9.0 mph NW14.5 kmh NW 33.0 mph53.1 kmh 30.25 in1024.4 mb 0.00 in0.0 mm 0.00 in0.0 mm 0.00 in0.0 mm
03:24 PM 35.1°F1.7°C 28.3°F-2.1°C 76% 21.0 mph NE33.8 kmh NE 33.0 mph53.1 kmh 30.25 in1024.4 mb 0.00 in0.0 mm 0.00 in0.0 mm 0.00 in0.0 mm
03:26 PM 35.0°F1.7°C 28.2°F-2.1°C 76% 3.0 mph N4.8 kmh N 33.0 mph53.1 kmh 30.25 in1024.4 mb 0.00 in0.0 mm 0.00 in0.0 mm 0.00 in0.0 mm
03:28 PM 34.8°F1.6°C 28.0°F-2.2°C 76% 14.0 mph NNW22.5 kmh NNW 33.0 mph53.1 kmh 30.25 in1024.4 mb 0.00 in0.0 mm 0.00 in0.0 mm 0.00 in0.0 mm
03:30 PM 34.8°F1.6°C 28.3°F-2.1°C 77% 18.0 mph NNW29.0 kmh NNW 33.0 mph53.1 kmh 30.25 in1024.4 mb 0.00 in0.0 mm 0.00 in0.0 mm 0.00 in0.0 mm
03:32 PM 34.9°F1.6°C 28.1°F-2.2°C 76% 11.0 mph NE17.7 kmh NE 33.0 mph53.1 kmh 30.25 in1024.4 mb 0.00 in0.0 mm 0.00 in0.0 mm 0.00 in0.0 mm
03:34 PM 34.8°F1.6°C 28.0°F-2.2°C 76% 28.0 mph NW45.1 kmh NW 28.0 mph45.1 kmh 30.25 in1024.4 mb 0.00 in0.0 mm 0.00 in0.0 mm 0.00 in0.0 mm
03:36 PM 34.6°F1.4°C 27.8°F-2.3°C 76% 20.0 mph NE32.2 kmh NE 28.0 mph45.1 kmh 30.25 in1024.4 mb 0.00 in0.0 mm 0.00 in0.0 mm 0.00 in0.0 mm
03:38 PM 34.5°F1.4°C 27.4°F-2.6°C 75% 6.0 mph NNE9.7 kmh NNE 28.0 mph45.1 kmh 30.25 in1024.4 mb 0.00 in0.0 mm 0.00 in0.0 mm 0.00 in0.0 mm
03:40 PM 34.5°F1.4°C 27.4°F-2.6°C 75% 7.0 mph NW11.3 kmh NW 28.0 mph45.1 kmh 30.25 in1024.4 mb 0.00 in0.0 mm 0.00 in0.0 mm 0.00 in0.0 mm
03:42 PM 34.4°F1.3°C 27.6°F-2.4°C 76% 15.0 mph NW24.1 kmh NW 28.0 mph45.1 kmh 30.26 in1024.7 mb 0.00 in0.0 mm 0.00 in0.0 mm 0.00 in0.0 mm
03:44 PM 34.5°F1.4°C 27.7°F-2.4°C 76% 26.0 mph NW41.8 kmh NW 28.0 mph45.1 kmh 30.26 in1024.7 mb 0.00 in0.0 mm 0.00 in0.0 mm 0.00 in0.0 mm
03:46 PM 34.5°F1.4°C 27.4°F-2.6°C 75% 26.0 mph NW41.8 kmh NW 32.0 mph51.5 kmh 30.26 in1024.7 mb 0.00 in0.0 mm 0.00 in0.0 mm 0.00 in0.0 mm
03:48 PM 34.5°F1.4°C 27.4°F-2.6°C 75% 12.0 mph NNW19.3 kmh NNW 32.0 mph51.5 kmh 30.26 in1024.7 mb 0.00 in0.0 mm 0.00 in0.0 mm 0.00 in0.0 mm
03:50 PM 34.5°F1.4°C 27.7°F-2.4°C 76% 20.0 mph NNW32.2 kmh NNW 32.0 mph51.5 kmh 30.26 in1024.7 mb 0.00 in0.0 mm 0.00 in0.0 mm 0.00 in0.0 mm
03:52 PM 34.5°F1.4°C 27.4°F-2.6°C 75% 14.0 mph N22.5 kmh N 32.0 mph51.5 kmh 30.26 in1024.7 mb 0.00 in0.0 mm 0.00 in0.0 mm 0.00 in0.0 mm
03:54 PM 34.5°F1.4°C 27.4°F-2.6°C 75% 10.0 mph NW16.1 kmh NW 32.0 mph51.5 kmh 30.26 in1024.7 mb 0.00 in0.0 mm 0.00 in0.0 mm 0.00 in0.0 mm
03:56 PM 34.3°F1.3°C 27.2°F-2.7°C 75% 20.0 mph NNW32.2 kmh NNW 33.0 mph53.1 kmh 30.27 in1025.1 mb 0.00 in0.0 mm 0.00 in0.0 mm 0.00 in0.0 mm
03:58 PM 34.2°F1.2°C 27.1°F-2.7°C 75% 18.0 mph N29.0 kmh N 33.0 mph53.1 kmh 30.26 in1024.7 mb 0.00 in0.0 mm 0.00 in0.0 mm 0.00 in0.0 mm
04:00 PM 34.1°F1.2°C 27.3°F-2.6°C 76% 12.0 mph N19.3 kmh N 33.0 mph53.1 kmh 30.26 in1024.7 mb 0.00 in0.0 mm 0.00 in0.0 mm 0.00 in0.0 mm
04:02 PM 34.1°F1.2°C 27.3°F-2.6°C 76% 15.0 mph NW24.1 kmh NW 33.0 mph53.1 kmh 30.27 in1025.1 mb 0.00 in0.0 mm 0.00 in0.0 mm 0.00 in0.0 mm
04:04 PM 34.0°F1.1°C 27.2°F-2.7°C 76% 23.0 mph NNW37.0 kmh NNW 35.0 mph56.3 kmh 30.27 in1025.1 mb 0.00 in0.0 mm 0.00 in0.0 mm 0.00 in0.0 mm
04:06 PM 33.7°F0.9°C 27.0°F-2.8°C 76% 22.0 mph NW35.4 kmh NW 35.0 mph56.3 kmh 30.27 in1025.1 mb 0.00 in0.0 mm 0.00 in0.0 mm 0.00 in0.0 mm
04:08 PM 33.5°F0.8°C 26.8°F-2.9°C 76% 15.0 mph N24.1 kmh N 35.0 mph56.3 kmh 30.27 in1025.1 mb 0.00 in0.0 mm 0.00 in0.0 mm 0.00 in0.0 mm
04:10 PM 33.4°F0.8°C 26.7°F-2.9°C 76% 25.0 mph NW40.2 kmh NW 35.0 mph56.3 kmh 30.28 in1025.4 mb 0.00 in0.0 mm 0.00 in0.0 mm 0.00 in0.0 mm
04:12 PM 33.3°F0.7°C 26.6°F-3.0°C 76% 16.0 mph WNW25.7 kmh WNW 35.0 mph56.3 kmh 30.27 in1025.1 mb 0.00 in0.0 mm 0.00 in0.0 mm 0.00 in0.0 mm
04:14 PM 33.3°F0.7°C 26.6°F-3.0°C 76% 12.0 mph NW19.3 kmh NW 35.0 mph56.3 kmh 30.28 in1025.4 mb 0.00 in0.0 mm 0.00 in0.0 mm 0.00 in0.0 mm
04:16 PM 33.2°F0.7°C 26.5°F-3.1°C 76% 24.0 mph N38.6 kmh N 35.0 mph56.3 kmh 30.28 in1025.4 mb 0.00 in0.0 mm 0.00 in0.0 mm 0.00 in0.0 mm
04:17 PM 33.1°F0.6°C 26.4°F-3.1°C 76% 16.0 mph NNW25.7 kmh NNW 35.0 mph56.3 kmh 30.28 in1025.4 mb 0.00 in0.0 mm 0.00 in0.0 mm 0.00 in0.0 mm
04:20 PM 33.0°F0.6°C 26.0°F-3.3°C 75% 10.0 mph NNW16.1 kmh NNW 35.0 mph56.3 kmh 30.29 in1025.7 mb 0.00 in0.0 mm 0.00 in0.0 mm 0.00 in0.0 mm
04:22 PM 33.0°F0.6°C 26.0°F-3.3°C 75% 29.0 mph NW46.7 kmh NW 35.0 mph56.3 kmh 30.29 in1025.7 mb 0.00 in0.0 mm 0.00 in0.0 mm 0.00 in0.0 mm
04:24 PM 32.9°F0.5°C 25.9°F-3.4°C 75% 6.0 mph NW9.7 kmh NW 35.0 mph56.3 kmh 30.28 in1025.4 mb 0.00 in0.0 mm 0.00 in0.0 mm 0.00 in0.0 mm
04:26 PM 32.8°F0.4°C 26.1°F-3.3°C 76% 16.0 mph NNW25.7 kmh NNW 35.0 mph56.3 kmh 30.29 in1025.7 mb 0.00 in0.0 mm 0.00 in0.0 mm 0.00 in0.0 mm
04:28 PM 32.7°F0.4°C 26.0°F-3.3°C 76% 12.0 mph NW19.3 kmh NW 35.0 mph56.3 kmh 30.29 in1025.7 mb 0.00 in0.0 mm 0.00 in0.0 mm 0.00 in0.0 mm
04:30 PM 32.7°F0.4°C 25.7°F-3.5°C 75% 11.0 mph NW17.7 kmh NW 35.0 mph56.3 kmh 30.29 in1025.7 mb 0.00 in0.0 mm 0.00 in0.0 mm 0.00 in0.0 mm
04:32 PM 32.5°F0.3°C 25.5°F-3.6°C 75% 12.0 mph NW19.3 kmh NW 35.0 mph56.3 kmh 30.29 in1025.7 mb 0.00 in0.0 mm 0.00 in0.0 mm 0.00 in0.0 mm
04:34 PM 32.5°F0.3°C 25.5°F-3.6°C 75% 22.0 mph NNW35.4 kmh NNW 22.0 mph35.4 kmh 30.29 in1025.7 mb 0.00 in0.0 mm 0.00 in0.0 mm 0.00 in0.0 mm
04:36 PM 32.4°F0.2°C 25.4°F-3.7°C 75% 14.0 mph NW22.5 kmh NW 24.0 mph38.6 kmh 30.29 in1025.7 mb 0.00 in0.0 mm 0.00 in0.0 mm 0.00 in0.0 mm
04:38 PM 32.5°F0.3°C 25.5°F-3.6°C 75% 27.0 mph N43.5 kmh N 27.0 mph43.5 kmh 30.29 in1025.7 mb 0.00 in0.0 mm 0.00 in0.0 mm 0.00 in0.0 mm
04:40 PM 32.5°F0.3°C 25.5°F-3.6°C 75% 8.0 mph N12.9 kmh N 27.0 mph43.5 kmh 30.29 in1025.7 mb 0.00 in0.0 mm 0.00 in0.0 mm 0.00 in0.0 mm
04:42 PM 32.6°F0.3°C 25.6°F-3.6°C 75% 27.0 mph N43.5 kmh N 27.0 mph43.5 kmh 30.29 in1025.7 mb 0.00 in0.0 mm 0.00 in0.0 mm 0.00 in0.0 mm
04:44 PM 32.6°F0.3°C 25.3°F-3.7°C 74% 16.0 mph NNW25.7 kmh NNW 27.0 mph43.5 kmh 30.29 in1025.7 mb 0.00 in0.0 mm 0.00 in0.0 mm 0.00 in0.0 mm
04:46 PM 32.7°F0.4°C 25.3°F-3.7°C 74% 8.0 mph NW12.9 kmh NW 27.0 mph43.5 kmh 30.30 in1026.1 mb 0.00 in0.0 mm 0.00 in0.0 mm 0.00 in0.0 mm
04:48 PM 32.8°F0.4°C 25.4°F-3.7°C 74% 11.0 mph N17.7 kmh N 27.0 mph43.5 kmh 30.30 in1026.1 mb 0.00 in0.0 mm 0.00 in0.0 mm 0.00 in0.0 mm
04:50 PM 32.8°F0.4°C 25.1°F-3.8°C 73% 17.0 mph NNE27.4 kmh NNE 27.0 mph43.5 kmh 30.30 in1026.1 mb 0.00 in0.0 mm 0.00 in0.0 mm 0.00 in0.0 mm
04:52 PM 32.7°F0.4°C 25.0°F-3.9°C 73% 10.0 mph NE16.1 kmh NE 27.0 mph43.5 kmh 30.30 in1026.1 mb 0.00 in0.0 mm 0.00 in0.0 mm 0.00 in0.0 mm
04:54 PM 32.8°F0.4°C 25.1°F-3.8°C 73% 18.0 mph NNW29.0 kmh NNW 27.0 mph43.5 kmh 30.30 in1026.1 mb 0.00 in0.0 mm 0.00 in0.0 mm 0.00 in0.0 mm
04:56 PM 32.8°F0.4°C 25.1°F-3.8°C 73% 12.0 mph NNW19.3 kmh NNW 27.0 mph43.5 kmh 30.31 in1026.4 mb 0.00 in0.0 mm 0.00 in0.0 mm 0.00 in0.0 mm
04:58 PM 32.8°F0.4°C 25.4°F-3.7°C 74% 11.0 mph NNW17.7 kmh NNW 28.0 mph45.1 kmh 30.31 in1026.4 mb 0.00 in0.0 mm 0.00 in0.0 mm 0.00 in0.0 mm
05:00 PM 32.8°F0.4°C 25.4°F-3.7°C 74% 8.0 mph N12.9 kmh N 28.0 mph45.1 kmh 30.31 in1026.4 mb 0.00 in0.0 mm 0.00 in0.0 mm 0.00 in0.0 mm
05:02 PM 32.6°F0.3°C 25.6°F-3.6°C 75% 11.0 mph NW17.7 kmh NW 28.0 mph45.1 kmh 30.31 in1026.4 mb 0.00 in0.0 mm 0.00 in0.0 mm 0.00 in0.0 mm
05:04 PM 32.6°F0.3°C 25.6°F-3.6°C 75% 13.0 mph NNW20.9 kmh NNW 18.0 mph29.0 kmh 30.31 in1026.4 mb 0.00 in0.0 mm 0.00 in0.0 mm 0.00 in0.0 mm
05:06 PM 32.5°F0.3°C 25.5°F-3.6°C 75% 14.0 mph NNE22.5 kmh NNE 23.0 mph37.0 kmh 30.31 in1026.4 mb 0.00 in0.0 mm 0.00 in0.0 mm 0.00 in0.0 mm
05:08 PM 32.4°F0.2°C 25.4°F-3.7°C 75% 16.0 mph NNW25.7 kmh NNW 23.0 mph37.0 kmh 30.31 in1026.4 mb 0.00 in0.0 mm 0.00 in0.0 mm 0.00 in0.0 mm
05:10 PM 32.4°F0.2°C 25.1°F-3.8°C 74% 13.0 mph NNE20.9 kmh NNE 23.0 mph37.0 kmh 30.31 in1026.4 mb 0.00 in0.0 mm 0.00 in0.0 mm 0.00 in0.0 mm
05:12 PM 32.2°F0.1°C 24.9°F-3.9°C 74% 12.0 mph NE19.3 kmh NE 24.0 mph38.6 kmh 30.31 in1026.4 mb 0.00 in0.0 mm 0.00 in0.0 mm 0.00 in0.0 mm
05:14 PM 32.2°F0.1°C 24.9°F-3.9°C 74% 5.0 mph NE8.0 kmh NE 24.0 mph38.6 kmh 30.31 in1026.4 mb 0.00 in0.0 mm 0.00 in0.0 mm 0.00 in0.0 mm
05:16 PM 32.2°F0.1°C 24.9°F-3.9°C 74% 19.0 mph NNE30.6 kmh NNE 35.0 mph56.3 kmh 30.32 in1026.8 mb 0.00 in0.0 mm 0.00 in0.0 mm 0.00 in0.0 mm
05:18 PM 32.1°F0.1°C 24.4°F-4.2°C 73% 12.0 mph NNW19.3 kmh NNW 35.0 mph56.3 kmh 30.32 in1026.8 mb 0.00 in0.0 mm 0.00 in0.0 mm 0.00 in0.0 mm
05:20 PM 32.1°F0.1°C 24.4°F-4.2°C 73% 14.0 mph N22.5 kmh N 35.0 mph56.3 kmh 30.32 in1026.8 mb 0.00 in0.0 mm 0.00 in0.0 mm 0.00 in0.0 mm
05:22 PM 32.1°F0.1°C 24.1°F-4.4°C 72% 9.0 mph NW14.5 kmh NW 35.0 mph56.3 kmh 30.33 in1027.1 mb 0.00 in0.0 mm 0.00 in0.0 mm 0.00 in0.0 mm
05:24 PM 32.1°F0.1°C 24.1°F-4.4°C 72% 19.0 mph NNE30.6 kmh NNE 35.0 mph56.3 kmh 30.33 in1027.1 mb 0.00 in0.0 mm 0.00 in0.0 mm 0.00 in0.0 mm
05:26 PM 32.1°F0.1°C 24.1°F-4.4°C 72% 17.0 mph N27.4 kmh N 35.0 mph56.3 kmh 30.33 in1027.1 mb 0.00 in0.0 mm 0.00 in0.0 mm 0.00 in0.0 mm
05:28 PM 32.1°F0.1°C 23.8°F-4.6°C 71% 24.0 mph NNW38.6 kmh NNW 35.0 mph56.3 kmh 30.32 in1026.8 mb 0.00 in0.0 mm 0.00 in0.0 mm 0.00 in0.0 mm
05:30 PM 32.1°F0.1°C 23.8°F-4.6°C 71% 23.0 mph NW37.0 kmh NW 35.0 mph56.3 kmh 30.33 in1027.1 mb 0.00 in0.0 mm 0.00 in0.0 mm 0.00 in0.0 mm
05:32 PM 32.1°F0.1°C 23.8°F-4.6°C 71% 12.0 mph WNW19.3 kmh WNW 35.0 mph56.3 kmh 30.33 in1027.1 mb 0.00 in0.0 mm 0.00 in0.0 mm 0.00 in0.0 mm
05:34 PM 32.1°F0.1°C 23.8°F-4.6°C 71% 11.0 mph N17.7 kmh N 23.0 mph37.0 kmh 30.33 in1027.1 mb 0.00 in0.0 mm 0.00 in0.0 mm 0.00 in0.0 mm
05:36 PM 32.2°F0.1°C 23.9°F-4.5°C 71% 15.0 mph NNW24.1 kmh NNW 24.0 mph38.6 kmh 30.33 in1027.1 mb 0.00 in0.0 mm 0.00 in0.0 mm 0.00 in0.0 mm
05:38 PM 32.2°F0.1°C 24.2°F-4.3°C 72% 6.0 mph NW9.7 kmh NW 24.0 mph38.6 kmh 30.34 in1027.4 mb 0.00 in0.0 mm 0.00 in0.0 mm 0.00 in0.0 mm
05:40 PM 32.3°F0.2°C 24.3°F-4.3°C 72% 5.0 mph NE8.0 kmh NE 24.0 mph38.6 kmh 30.34 in1027.4 mb 0.00 in0.0 mm 0.00 in0.0 mm 0.00 in0.0 mm
05:42 PM 32.3°F0.2°C 24.3°F-4.3°C 72% 16.0 mph NNW25.7 kmh NNW 24.0 mph38.6 kmh 30.35 in1027.8 mb 0.00 in0.0 mm 0.00 in0.0 mm 0.00 in0.0 mm
05:44 PM 32.2°F0.1°C 24.2°F-4.3°C 72% 5.0 mph NW8.0 kmh NW 24.0 mph38.6 kmh 30.35 in1027.8 mb 0.00 in0.0 mm 0.00 in0.0 mm 0.00 in0.0 mm
05:46 PM 32.1°F0.1°C 23.8°F-4.6°C 71% 16.0 mph NNW25.7 kmh NNW 24.0 mph38.6 kmh 30.35 in1027.8 mb 0.00 in0.0 mm 0.00 in0.0 mm 0.00 in0.0 mm
05:48 PM 32.2°F0.1°C 23.9°F-4.5°C 71% 19.0 mph NW30.6 kmh NW 24.0 mph38.6 kmh 30.35 in1027.8 mb 0.00 in0.0 mm 0.00 in0.0 mm 0.00 in0.0 mm
05:50 PM 32.1°F0.1°C 23.4°F-4.8°C 70% 5.0 mph NW8.0 kmh NW 24.0 mph38.6 kmh 30.35 in1027.8 mb 0.00 in0.0 mm 0.00 in0.0 mm 0.00 in0.0 mm
05:52 PM 32.1°F0.1°C 23.4°F-4.8°C 70% 18.0 mph NNW29.0 kmh NNW 24.0 mph38.6 kmh 30.35 in1027.8 mb 0.00 in0.0 mm 0.00 in0.0 mm 0.00 in0.0 mm
05:54 PM 32.1°F0.1°C 23.1°F-4.9°C 69% 20.0 mph N32.2 kmh N 25.0 mph40.2 kmh 30.36 in1028.1 mb 0.00 in0.0 mm 0.00 in0.0 mm 0.00 in0.0 mm
05:56 PM 32.1°F0.1°C 23.1°F-4.9°C 69% 20.0 mph NNW32.2 kmh NNW 26.0 mph41.8 kmh 30.36 in1028.1 mb 0.00 in0.0 mm 0.00 in0.0 mm 0.00 in0.0 mm
05:58 PM 32.1°F0.1°C 22.8°F-5.1°C 68% 18.0 mph N29.0 kmh N 34.0 mph54.7 kmh 30.36 in1028.1 mb 0.00 in0.0 mm 0.00 in0.0 mm 0.00 in0.0 mm
06:00 PM 32.2°F0.1°C 22.5°F-5.3°C 67% 26.0 mph NNW41.8 kmh NNW 38.0 mph61.2 kmh 30.36 in1028.1 mb 0.00 in0.0 mm 0.00 in0.0 mm 0.00 in0.0 mm
06:02 PM 32.1°F0.1°C 22.4°F-5.3°C 67% 15.0 mph NW24.1 kmh NW 38.0 mph61.2 kmh 30.36 in1028.1 mb 0.00 in0.0 mm 0.00 in0.0 mm 0.00 in0.0 mm
06:04 PM 32.2°F0.1°C 22.5°F-5.3°C 67% 5.0 mph N8.0 kmh N 24.0 mph38.6 kmh 30.35 in1027.8 mb 0.00 in0.0 mm 0.00 in0.0 mm 0.00 in0.0 mm
06:06 PM 32.2°F0.1°C 22.5°F-5.3°C 67% 18.0 mph NNW29.0 kmh NNW 27.0 mph43.5 kmh 30.36 in1028.1 mb 0.00 in0.0 mm 0.00 in0.0 mm 0.00 in0.0 mm
06:08 PM 32.2°F0.1°C 22.5°F-5.3°C 67% 13.0 mph NW20.9 kmh NW 27.0 mph43.5 kmh 30.36 in1028.1 mb 0.00 in0.0 mm 0.00 in0.0 mm 0.00 in0.0 mm
06:10 PM 32.2°F0.1°C 22.5°F-5.3°C 67% 12.0 mph NW19.3 kmh NW 27.0 mph43.5 kmh 30.36 in1028.1 mb 0.00 in0.0 mm 0.00 in0.0 mm 0.00 in0.0 mm
06:12 PM 32.2°F0.1°C 22.5°F-5.3°C 67% 12.0 mph NW19.3 kmh NW 28.0 mph45.1 kmh 30.37 in1028.4 mb 0.00 in0.0 mm 0.00 in0.0 mm 0.00 in0.0 mm
06:14 PM 32.1°F0.1°C 22.4°F-5.3°C 67% 12.0 mph NW19.3 kmh NW 28.0 mph45.1 kmh 30.37 in1028.4 mb 0.00 in0.0 mm 0.00 in0.0 mm 0.00 in0.0 mm
06:16 PM 32.1°F0.1°C 22.8°F-5.1°C 68% 4.0 mph N6.4 kmh N 28.0 mph45.1 kmh 30.37 in1028.4 mb 0.00 in0.0 mm 0.00 in0.0 mm 0.00 in0.0 mm
06:18 PM 32.2°F0.1°C 22.8°F-5.1°C 68% 20.0 mph NW32.2 kmh NW 28.0 mph45.1 kmh 30.37 in1028.4 mb 0.00 in0.0 mm 0.00 in0.0 mm 0.00 in0.0 mm
06:20 PM 32.1°F0.1°C 22.8°F-5.1°C 68% 11.0 mph NNW17.7 kmh NNW 28.0 mph45.1 kmh 30.38 in1028.8 mb 0.00 in0.0 mm 0.00 in0.0 mm 0.00 in0.0 mm
06:22 PM 32.1°F0.1°C 22.8°F-5.1°C 68% 5.0 mph N8.0 kmh N 28.0 mph45.1 kmh 30.37 in1028.4 mb 0.00 in0.0 mm 0.00 in0.0 mm 0.00 in0.0 mm
06:24 PM 32.1°F0.1°C 22.8°F-5.1°C 68% 8.0 mph N12.9 kmh N 28.0 mph45.1 kmh 30.37 in1028.4 mb 0.00 in0.0 mm 0.00 in0.0 mm 0.00 in0.0 mm
06:26 PM 32.1°F0.1°C 22.8°F-5.1°C 68% 21.0 mph N33.8 kmh N 28.0 mph45.1 kmh 30.37 in1028.4 mb 0.00 in0.0 mm 0.00 in0.0 mm 0.00 in0.0 mm
06:28 PM 32.0°F0.0°C 22.3°F-5.4°C 67% 19.0 mph NW30.6 kmh NW 30.0 mph48.3 kmh 30.38 in1028.8 mb 0.00 in0.0 mm 0.00 in0.0 mm 0.00 in0.0 mm
06:30 PM 32.0°F0.0°C 21.9°F-5.6°C 66% 16.0 mph NNW25.7 kmh NNW 30.0 mph48.3 kmh 30.38 in1028.8 mb 0.00 in0.0 mm 0.00 in0.0 mm 0.00 in0.0 mm
06:32 PM 31.9°F-0.1°C 21.9°F-5.6°C 66% 17.0 mph NW27.4 kmh NW 30.0 mph48.3 kmh 30.37 in1028.4 mb 0.00 in0.0 mm 0.00 in0.0 mm 0.00 in0.0 mm
06:34 PM 31.9°F-0.1°C 21.9°F-5.6°C 66% 4.0 mph NE6.4 kmh NE 18.0 mph29.0 kmh 30.38 in1028.8 mb 0.00 in0.0 mm 0.00 in0.0 mm 0.00 in0.0 mm
06:36 PM 32.0°F0.0°C 21.9°F-5.6°C 66% 9.0 mph NNE14.5 kmh NNE 21.0 mph33.8 kmh 30.39 in1029.1 mb 0.00 in0.0 mm 0.00 in0.0 mm 0.00 in0.0 mm
06:38 PM 32.0°F0.0°C 21.6°F-5.8°C 65% 9.0 mph NNW14.5 kmh NNW 30.0 mph48.3 kmh 30.40 in1029.5 mb 0.00 in0.0 mm 0.00 in0.0 mm 0.00 in0.0 mm
06:40 PM 31.9°F-0.1°C 21.5°F-5.8°C 65% 7.0 mph W11.3 kmh W 30.0 mph48.3 kmh 30.40 in1029.5 mb 0.00 in0.0 mm 0.00 in0.0 mm 0.00 in0.0 mm
06:42 PM 31.9°F-0.1°C 21.5°F-5.8°C 65% 11.0 mph N17.7 kmh N 30.0 mph48.3 kmh 30.40 in1029.5 mb 0.00 in0.0 mm 0.00 in0.0 mm 0.00 in0.0 mm
06:44 PM 31.9°F-0.1°C 21.5°F-5.8°C 65% 30.0 mph NW48.3 kmh NW 30.0 mph48.3 kmh 30.40 in1029.5 mb 0.00 in0.0 mm 0.00 in0.0 mm 0.00 in0.0 mm
06:46 PM 32.0°F0.0°C 21.6°F-5.8°C 65% 16.0 mph NW25.7 kmh NW 30.0 mph48.3 kmh 30.40 in1029.5 mb 0.00 in0.0 mm 0.00 in0.0 mm 0.00 in0.0 mm
06:48 PM 32.1°F0.1°C 21.7°F-5.7°C 65% 21.0 mph NNW33.8 kmh NNW 30.0 mph48.3 kmh 30.40 in1029.5 mb 0.00 in0.0 mm 0.00 in0.0 mm 0.00 in0.0 mm
06:50 PM 32.0°F0.0°C 21.6°F-5.8°C 65% 15.0 mph NNW24.1 kmh NNW 30.0 mph48.3 kmh 30.40 in1029.5 mb 0.00 in0.0 mm 0.00 in0.0 mm 0.00 in0.0 mm
06:52 PM 32.0°F0.0°C 21.6°F-5.8°C 65% 3.0 mph N4.8 kmh N 30.0 mph48.3 kmh 30.40 in1029.5 mb 0.00 in0.0 mm 0.00 in0.0 mm 0.00 in0.0 mm
06:54 PM 32.0°F0.0°C 21.6°F-5.8°C 65% 16.0 mph NW25.7 kmh NW 30.0 mph48.3 kmh 30.41 in1029.8 mb 0.00 in0.0 mm 0.00 in0.0 mm 0.00 in0.0 mm
06:56 PM 32.0°F0.0°C 21.6°F-5.8°C 65% 25.0 mph NNW40.2 kmh NNW 30.0 mph48.3 kmh 30.41 in1029.8 mb 0.00 in0.0 mm 0.00 in0.0 mm 0.00 in0.0 mm
06:58 PM 31.9°F-0.1°C 21.5°F-5.8°C 65% 9.0 mph NNW14.5 kmh NNW 30.0 mph48.3 kmh 30.40 in1029.5 mb 0.00 in0.0 mm 0.00 in0.0 mm 0.00 in0.0 mm
07:00 PM 31.8°F-0.1°C 21.8°F-5.7°C 66% 11.0 mph NW17.7 kmh NW 30.0 mph48.3 kmh 30.40 in1029.5 mb 0.00 in0.0 mm 0.00 in0.0 mm 0.00 in0.0 mm
07:02 PM 31.8°F-0.1°C 21.8°F-5.7°C 66% 14.0 mph NW22.5 kmh NW 30.0 mph48.3 kmh 30.40 in1029.5 mb 0.00 in0.0 mm 0.00 in0.0 mm 0.00 in0.0 mm
07:04 PM 31.7°F-0.2°C 21.7°F-5.7°C 66% 17.0 mph WNW27.4 kmh WNW 23.0 mph37.0 kmh 30.40 in1029.5 mb 0.00 in0.0 mm 0.00 in0.0 mm 0.00 in0.0 mm
07:06 PM 31.6°F-0.2°C 21.6°F-5.8°C 66% 18.0 mph WNW29.0 kmh WNW 25.0 mph40.2 kmh 30.40 in1029.5 mb 0.00 in0.0 mm 0.00 in0.0 mm 0.00 in0.0 mm
07:08 PM 31.6°F-0.2°C 21.2°F-6.0°C 65% 11.0 mph NE17.7 kmh NE 27.0 mph43.5 kmh 30.41 in1029.8 mb 0.00 in0.0 mm 0.00 in0.0 mm 0.00 in0.0 mm
07:10 PM 31.6°F-0.2°C 21.2°F-6.0°C 65% 23.0 mph NNW37.0 kmh NNW 27.0 mph43.5 kmh 30.41 in1029.8 mb 0.00 in0.0 mm 0.00 in0.0 mm 0.00 in0.0 mm
07:12 PM 31.6°F-0.2°C 21.2°F-6.0°C 65% 12.0 mph NW19.3 kmh NW 27.0 mph43.5 kmh 30.41 in1029.8 mb 0.00 in0.0 mm 0.00 in0.0 mm 0.00 in0.0 mm
07:14 PM 31.6°F-0.2°C 21.2°F-6.0°C 65% 18.0 mph N29.0 kmh N 27.0 mph43.5 kmh 30.41 in1029.8 mb 0.00 in0.0 mm 0.00 in0.0 mm 0.00 in0.0 mm
07:16 PM 31.6°F-0.2°C 20.8°F-6.2°C 64% 18.0 mph N29.0 kmh N 27.0 mph43.5 kmh 30.41 in1029.8 mb 0.00 in0.0 mm 0.00 in0.0 mm 0.00 in0.0 mm
07:18 PM 31.5°F-0.3°C 21.1°F-6.1°C 65% 17.0 mph N27.4 kmh N 27.0 mph43.5 kmh 30.41 in1029.8 mb 0.00 in0.0 mm 0.00 in0.0 mm 0.00 in0.0 mm
07:20 PM 31.5°F-0.3°C 20.7°F-6.3°C 64% 16.0 mph NNW25.7 kmh NNW 27.0 mph43.5 kmh 30.41 in1029.8 mb 0.00 in0.0 mm 0.00 in0.0 mm 0.00 in0.0 mm
07:22 PM 31.5°F-0.3°C 20.7°F-6.3°C 64% 18.0 mph NW29.0 kmh NW 27.0 mph43.5 kmh 30.41 in1029.8 mb 0.00 in0.0 mm 0.00 in0.0 mm 0.00 in0.0 mm
07:24 PM 31.5°F-0.3°C 20.7°F-6.3°C 64% 10.0 mph N16.1 kmh N 31.0 mph49.9 kmh 30.42 in1030.1 mb 0.00 in0.0 mm 0.00 in0.0 mm 0.00 in0.0 mm
07:26 PM 31.5°F-0.3°C 20.7°F-6.3°C 64% 26.0 mph NNW41.8 kmh NNW 31.0 mph49.9 kmh 30.42 in1030.1 mb 0.00 in0.0 mm 0.00 in0.0 mm 0.00 in0.0 mm
07:28 PM 31.4°F-0.3°C 20.3°F-6.5°C 63% 26.0 mph NW41.8 kmh NW 31.0 mph49.9 kmh 30.43 in1030.5 mb 0.00 in0.0 mm 0.00 in0.0 mm 0.00 in0.0 mm
07:30 PM 31.3°F-0.4°C 20.2°F-6.6°C 63% 17.0 mph NW27.4 kmh NW 32.0 mph51.5 kmh 30.43 in1030.5 mb 0.00 in0.0 mm 0.00 in0.0 mm 0.00 in0.0 mm
07:32 PM 31.3°F-0.4°C 20.2°F-6.6°C 63% 15.0 mph N24.1 kmh N 32.0 mph51.5 kmh 30.43 in1030.5 mb 0.00 in0.0 mm 0.00 in0.0 mm 0.00 in0.0 mm
07:34 PM 31.3°F-0.4°C 20.2°F-6.6°C 63% 24.0 mph NW38.6 kmh NW 26.0 mph41.8 kmh 30.43 in1030.5 mb 0.00 in0.0 mm 0.00 in0.0 mm 0.00 in0.0 mm
07:36 PM 31.3°F-0.4°C 20.2°F-6.6°C 63% 30.0 mph NNE48.3 kmh NNE 32.0 mph51.5 kmh 30.43 in1030.5 mb 0.00 in0.0 mm 0.00 in0.0 mm 0.00 in0.0 mm
07:38 PM 31.2°F-0.4°C 20.1°F-6.6°C 63% 13.0 mph NNW20.9 kmh NNW 32.0 mph51.5 kmh 30.42 in1030.1 mb 0.00 in0.0 mm 0.00 in0.0 mm 0.00 in0.0 mm
07:40 PM 31.2°F-0.4°C 20.1°F-6.6°C 63% 14.0 mph NW22.5 kmh NW 32.0 mph51.5 kmh 30.42 in1030.1 mb 0.00 in0.0 mm 0.00 in0.0 mm 0.00 in0.0 mm
07:42 PM 31.2°F-0.4°C 20.1°F-6.6°C 63% 20.0 mph NW32.2 kmh NW 32.0 mph51.5 kmh 30.42 in1030.1 mb 0.00 in0.0 mm 0.00 in0.0 mm 0.00 in0.0 mm
07:44 PM 31.2°F-0.4°C 20.1°F-6.6°C 63% 12.0 mph NNW19.3 kmh NNW 32.0 mph51.5 kmh 30.43 in1030.5 mb 0.00 in0.0 mm 0.00 in0.0 mm 0.00 in0.0 mm
07:46 PM 31.2°F-0.4°C 20.1°F-6.6°C 63% 10.0 mph N16.1 kmh N 32.0 mph51.5 kmh 30.43 in1030.5 mb 0.00 in0.0 mm 0.00 in0.0 mm 0.00 in0.0 mm
07:48 PM 31.2°F-0.4°C 20.1°F-6.6°C 63% 25.0 mph NW40.2 kmh NW 32.0 mph51.5 kmh 30.43 in1030.5 mb 0.00 in0.0 mm 0.00 in0.0 mm 0.00 in0.0 mm
07:50 PM 31.1°F-0.5°C 20.0°F-6.7°C 63% 10.0 mph NW16.1 kmh NW 32.0 mph51.5 kmh 30.44 in1030.8 mb 0.00 in0.0 mm 0.00 in0.0 mm 0.00 in0.0 mm
07:52 PM 31.1°F-0.5°C 19.6°F-6.9°C 62% 19.0 mph NE30.6 kmh NE 32.0 mph51.5 kmh 30.44 in1030.8 mb 0.00 in0.0 mm 0.00 in0.0 mm 0.00 in0.0 mm
07:54 PM 31.0°F-0.6°C 19.1°F-7.2°C 61% 15.0 mph NW24.1 kmh NW 32.0 mph51.5 kmh 30.44 in1030.8 mb 0.00 in0.0 mm 0.00 in0.0 mm 0.00 in0.0 mm
07:56 PM 30.9°F-0.6°C 19.1°F-7.2°C 61% 13.0 mph N20.9 kmh N 32.0 mph51.5 kmh 30.44 in1030.8 mb 0.00 in0.0 mm 0.00 in0.0 mm 0.00 in0.0 mm
07:58 PM 31.0°F-0.6°C 19.5°F-6.9°C 62% 5.0 mph NNW8.0 kmh NNW 32.0 mph51.5 kmh 30.44 in1030.8 mb 0.00 in0.0 mm 0.00 in0.0 mm 0.00 in0.0 mm
08:00 PM 30.9°F-0.6°C 19.4°F-7.0°C 62% 13.0 mph NW20.9 kmh NW 32.0 mph51.5 kmh 30.45 in1031.2 mb 0.00 in0.0 mm 0.00 in0.0 mm 0.00 in0.0 mm
08:02 PM 31.0°F-0.6°C 19.5°F-6.9°C 62% 10.0 mph NNE16.1 kmh NNE 32.0 mph51.5 kmh 30.45 in1031.2 mb 0.00 in0.0 mm 0.00 in0.0 mm 0.00 in0.0 mm
08:04 PM 31.0°F-0.6°C 19.1°F-7.2°C 61% 15.0 mph NW24.1 kmh NW 31.0 mph49.9 kmh 30.45 in1031.2 mb 0.00 in0.0 mm 0.00 in0.0 mm 0.00 in0.0 mm
08:06 PM 30.9°F-0.6°C 19.1°F-7.2°C 61% 18.0 mph NW29.0 kmh NW 31.0 mph49.9 kmh 30.45 in1031.2 mb 0.00 in0.0 mm 0.00 in0.0 mm 0.00 in0.0 mm
08:08 PM 30.9°F-0.6°C 19.1°F-7.2°C 61% 13.0 mph N20.9 kmh N 31.0 mph49.9 kmh 30.45 in1031.2 mb 0.00 in0.0 mm 0.00 in0.0 mm 0.00 in0.0 mm
08:10 PM 30.9°F-0.6°C 19.1°F-7.2°C 61% 7.0 mph N11.3 kmh N 31.0 mph49.9 kmh 30.45 in1031.2 mb 0.00 in0.0 mm 0.00 in0.0 mm 0.00 in0.0 mm
08:12 PM 30.9°F-0.6°C 19.4°F-7.0°C 62% 9.0 mph NNE14.5 kmh NNE 31.0 mph49.9 kmh 30.45 in1031.2 mb 0.00 in0.0 mm 0.00 in0.0 mm 0.00 in0.0 mm
08:14 PM 30.9°F-0.6°C 19.4°F-7.0°C 62% 14.0 mph N22.5 kmh N 31.0 mph49.9 kmh 30.45 in1031.2 mb 0.00 in0.0 mm 0.00 in0.0 mm 0.00 in0.0 mm
08:16 PM 30.9°F-0.6°C 19.4°F-7.0°C 62% 18.0 mph N29.0 kmh N 31.0 mph49.9 kmh 30.46 in1031.5 mb 0.00 in0.0 mm 0.00 in0.0 mm 0.00 in0.0 mm
08:18 PM 30.8°F-0.7°C 19.3°F-7.1°C 62% 14.0 mph NNW22.5 kmh NNW 31.0 mph49.9 kmh 30.46 in1031.5 mb 0.00 in0.0 mm 0.00 in0.0 mm 0.00 in0.0 mm
08:20 PM 30.8°F-0.7°C 19.7°F-6.8°C 63% 6.0 mph NW9.7 kmh NW 31.0 mph49.9 kmh 30.45 in1031.2 mb 0.00 in0.0 mm 0.00 in0.0 mm 0.00 in0.0 mm
08:22 PM 30.8°F-0.7°C 19.7°F-6.8°C 63% 20.0 mph NE32.2 kmh NE 31.0 mph49.9 kmh 30.45 in1031.2 mb 0.00 in0.0 mm 0.00 in0.0 mm 0.00 in0.0 mm
08:24 PM 30.7°F-0.7°C 19.2°F-7.1°C 62% 8.0 mph NW12.9 kmh NW 31.0 mph49.9 kmh 30.45 in1031.2 mb 0.00 in0.0 mm 0.00 in0.0 mm 0.00 in0.0 mm
08:26 PM 30.7°F-0.7°C 19.6°F-6.9°C 63% 9.0 mph N14.5 kmh N 31.0 mph49.9 kmh 30.45 in1031.2 mb 0.00 in0.0 mm 0.00 in0.0 mm 0.00 in0.0 mm
08:28 PM 30.7°F-0.7°C 19.6°F-6.9°C 63% 8.0 mph NNE12.9 kmh NNE 31.0 mph49.9 kmh 30.46 in1031.5 mb 0.00 in0.0 mm 0.00 in0.0 mm 0.00 in0.0 mm
08:30 PM 30.6°F-0.8°C 19.5°F-6.9°C 63% 15.0 mph NNW24.1 kmh NNW 31.0 mph49.9 kmh 30.46 in1031.5 mb 0.00 in0.0 mm 0.00 in0.0 mm 0.00 in0.0 mm
08:32 PM 30.6°F-0.8°C 19.1°F-7.2°C 62% 14.0 mph N22.5 kmh N 16.0 mph25.7 kmh 30.46 in1031.5 mb 0.00 in0.0 mm 0.00 in0.0 mm 0.00 in0.0 mm
08:34 PM 30.6°F-0.8°C 19.1°F-7.2°C 62% 15.0 mph NW24.1 kmh NW 26.0 mph41.8 kmh 30.46 in1031.5 mb 0.00 in0.0 mm 0.00 in0.0 mm 0.00 in0.0 mm
08:36 PM 30.6°F-0.8°C 19.1°F-7.2°C 62% 12.0 mph N19.3 kmh N 27.0 mph43.5 kmh 30.46 in1031.5 mb 0.00 in0.0 mm 0.00 in0.0 mm 0.00 in0.0 mm
08:38 PM 30.6°F-0.8°C 19.1°F-7.2°C 62% 5.0 mph NW8.0 kmh NW 27.0 mph43.5 kmh 30.46 in1031.5 mb 0.00 in0.0 mm 0.00 in0.0 mm 0.00 in0.0 mm
08:40 PM 30.6°F-0.8°C 19.1°F-7.2°C 62% 8.0 mph N12.9 kmh N 27.0 mph43.5 kmh 30.46 in1031.5 mb 0.00 in0.0 mm 0.00 in0.0 mm 0.00 in0.0 mm
08:42 PM 30.6°F-0.8°C 19.1°F-7.2°C 62% 17.0 mph NNE27.4 kmh NNE 27.0 mph43.5 kmh 30.47 in1031.8 mb 0.00 in0.0 mm 0.00 in0.0 mm 0.00 in0.0 mm
08:44 PM 30.6°F-0.8°C 18.8°F-7.3°C 61% 13.0 mph NW20.9 kmh NW 27.0 mph43.5 kmh 30.47 in1031.8 mb 0.00 in0.0 mm 0.00 in0.0 mm 0.00 in0.0 mm
08:46 PM 30.6°F-0.8°C 18.8°F-7.3°C 61% 14.0 mph NNW22.5 kmh NNW 27.0 mph43.5 kmh 30.47 in1031.8 mb 0.00 in0.0 mm 0.00 in0.0 mm 0.00 in0.0 mm
08:48 PM 30.6°F-0.8°C 18.8°F-7.3°C 61% 10.0 mph N16.1 kmh N 27.0 mph43.5 kmh 30.48 in1032.2 mb 0.00 in0.0 mm 0.00 in0.0 mm 0.00 in0.0 mm
08:50 PM 30.6°F-0.8°C 19.1°F-7.2°C 62% 16.0 mph NW25.7 kmh NW 27.0 mph43.5 kmh 30.47 in1031.8 mb 0.00 in0.0 mm 0.00 in0.0 mm 0.00 in0.0 mm
08:52 PM 30.6°F-0.8°C 18.8°F-7.3°C 61% 8.0 mph N12.9 kmh N 27.0 mph43.5 kmh 30.47 in1031.8 mb 0.00 in0.0 mm 0.00 in0.0 mm 0.00 in0.0 mm
08:54 PM 30.6°F-0.8°C 19.1°F-7.2°C 62% 13.0 mph NW20.9 kmh NW 27.0 mph43.5 kmh 30.47 in1031.8 mb 0.00 in0.0 mm 0.00 in0.0 mm 0.00 in0.0 mm
08:56 PM 30.6°F-0.8°C 19.1°F-7.2°C 62% 7.0 mph NE11.3 kmh NE 27.0 mph43.5 kmh 30.47 in1031.8 mb 0.00 in0.0 mm 0.00 in0.0 mm 0.00 in0.0 mm
08:58 PM 30.6°F-0.8°C 19.1°F-7.2°C 62% 6.0 mph NNW9.7 kmh NNW 27.0 mph43.5 kmh 30.47 in1031.8 mb 0.00 in0.0 mm 0.00 in0.0 mm 0.00 in0.0 mm
09:00 PM 30.6°F-0.8°C 19.1°F-7.2°C 62% 9.0 mph NNW14.5 kmh NNW 27.0 mph43.5 kmh 30.48 in1032.2 mb 0.00 in0.0 mm 0.00 in0.0 mm 0.00 in0.0 mm
09:02 PM 30.6°F-0.8°C 19.1°F-7.2°C 62% 12.0 mph N19.3 kmh N 27.0 mph43.5 kmh 30.48 in1032.2 mb 0.00 in0.0 mm 0.00 in0.0 mm 0.00 in0.0 mm
09:04 PM 30.6°F-0.8°C 18.8°F-7.3°C 61% 8.0 mph N12.9 kmh N 19.0 mph30.6 kmh 30.47 in1031.8 mb 0.00 in0.0 mm 0.00 in0.0 mm 0.00 in0.0 mm
09:06 PM 30.6°F-0.8°C 18.8°F-7.3°C 61% 10.0 mph N16.1 kmh N 25.0 mph40.2 kmh 30.47 in1031.8 mb 0.00 in0.0 mm 0.00 in0.0 mm 0.00 in0.0 mm
09:08 PM 30.5°F-0.8°C 18.7°F-7.4°C 61% 5.0 mph NNW8.0 kmh NNW 27.0 mph43.5 kmh 30.47 in1031.8 mb 0.00 in0.0 mm 0.00 in0.0 mm 0.00 in0.0 mm
09:10 PM 30.5°F-0.8°C 18.7°F-7.4°C 61% 17.0 mph NW27.4 kmh NW 27.0 mph43.5 kmh 30.47 in1031.8 mb 0.00 in0.0 mm 0.00 in0.0 mm 0.00 in0.0 mm
09:12 PM 30.4°F-0.9°C 18.6°F-7.4°C 61% 13.0 mph NNE20.9 kmh NNE 33.0 mph53.1 kmh 30.47 in1031.8 mb 0.00 in0.0 mm 0.00 in0.0 mm 0.00 in0.0 mm
09:14 PM 30.4°F-0.9°C 18.6°F-7.4°C 61% 10.0 mph N16.1 kmh N 33.0 mph53.1 kmh 30.47 in1031.8 mb 0.00 in0.0 mm 0.00 in0.0 mm 0.00 in0.0 mm
09:16 PM 30.4°F-0.9°C 18.6°F-7.4°C 61% 13.0 mph NNW20.9 kmh NNW 33.0 mph53.1 kmh 30.48 in1032.2 mb 0.00 in0.0 mm 0.00 in0.0 mm 0.00 in0.0 mm
09:18 PM 30.4°F-0.9°C 18.6°F-7.4°C 61% 12.0 mph NNE19.3 kmh NNE 33.0 mph53.1 kmh 30.48 in1032.2 mb 0.00 in0.0 mm 0.00 in0.0 mm 0.00 in0.0 mm
09:20 PM 30.4°F-0.9°C 18.6°F-7.4°C 61% 8.0 mph NW12.9 kmh NW 33.0 mph53.1 kmh 30.48 in1032.2 mb 0.00 in0.0 mm 0.00 in0.0 mm 0.00 in0.0 mm
09:22 PM 30.4°F-0.9°C 18.2°F-7.7°C 60% 13.0 mph NW20.9 kmh NW 33.0 mph53.1 kmh 30.48 in1032.2 mb 0.00 in0.0 mm 0.00 in0.0 mm 0.00 in0.0 mm
09:24 PM 30.3°F-0.9°C 18.1°F-7.7°C 60% 12.0 mph NW19.3 kmh NW 33.0 mph53.1 kmh 30.48 in1032.2 mb 0.00 in0.0 mm 0.00 in0.0 mm 0.00 in0.0 mm
09:26 PM 30.2°F-1.0°C 18.0°F-7.8°C 60% 10.0 mph NW16.1 kmh NW 33.0 mph53.1 kmh 30.48 in1032.2 mb 0.00 in0.0 mm 0.00 in0.0 mm 0.00 in0.0 mm
09:28 PM 30.2°F-1.0°C 18.4°F-7.6°C 61% 12.0 mph NNW19.3 kmh NNW 33.0 mph53.1 kmh 30.48 in1032.2 mb 0.00 in0.0 mm 0.00 in0.0 mm 0.00 in0.0 mm
09:30 PM 30.2°F-1.0°C 18.4°F-7.6°C 61% 6.0 mph NW9.7 kmh NW 33.0 mph53.1 kmh 30.48 in1032.2 mb 0.00 in0.0 mm 0.00 in0.0 mm 0.00 in0.0 mm
09:32 PM 30.2°F-1.0°C 18.0°F-7.8°C 60% 8.0 mph NE12.9 kmh NE 33.0 mph53.1 kmh 30.48 in1032.2 mb 0.00 in0.0 mm 0.00 in0.0 mm 0.00 in0.0 mm
09:34 PM 30.2°F-1.0°C 18.0°F-7.8°C 60% 11.0 mph NW17.7 kmh NW 28.0 mph45.1 kmh 30.49 in1032.5 mb 0.00 in0.0 mm 0.00 in0.0 mm 0.00 in0.0 mm
09:36 PM 30.1°F-1.1°C 17.9°F-7.8°C 60% 11.0 mph N17.7 kmh N 28.0 mph45.1 kmh 30.49 in1032.5 mb 0.00 in0.0 mm 0.00 in0.0 mm 0.00 in0.0 mm
09:38 PM 30.1°F-1.1°C 18.3°F-7.6°C 61% 13.0 mph NNE20.9 kmh NNE 28.0 mph45.1 kmh 30.49 in1032.5 mb 0.00 in0.0 mm 0.00 in0.0 mm 0.00 in0.0 mm
09:40 PM 30.2°F-1.0°C 18.4°F-7.6°C 61% 18.0 mph N29.0 kmh N 28.0 mph45.1 kmh 30.49 in1032.5 mb 0.00 in0.0 mm 0.00 in0.0 mm 0.00 in0.0 mm
09:42 PM 30.1°F-1.1°C 18.3°F-7.6°C 61% 10.0 mph NW16.1 kmh NW 28.0 mph45.1 kmh 30.50 in1032.8 mb 0.00 in0.0 mm 0.00 in0.0 mm 0.00 in0.0 mm
09:44 PM 30.1°F-1.1°C 18.3°F-7.6°C 61% 20.0 mph NW32.2 kmh NW 28.0 mph45.1 kmh 30.50 in1032.8 mb 0.00 in0.0 mm 0.00 in0.0 mm 0.00 in0.0 mm
09:46 PM 30.1°F-1.1°C 18.3°F-7.6°C 61% 13.0 mph NNW20.9 kmh NNW 28.0 mph45.1 kmh 30.49 in1032.5 mb 0.00 in0.0 mm 0.00 in0.0 mm 0.00 in0.0 mm
09:48 PM 30.1°F-1.1°C 18.3°F-7.6°C 61% 5.0 mph N8.0 kmh N 28.0 mph45.1 kmh 30.49 in1032.5 mb 0.00 in0.0 mm 0.00 in0.0 mm 0.00 in0.0 mm
09:50 PM 30.1°F-1.1°C 18.3°F-7.6°C 61% 2.0 mph NW3.2 kmh NW 28.0 mph45.1 kmh 30.49 in1032.5 mb 0.00 in0.0 mm 0.00 in0.0 mm 0.00 in0.0 mm
09:52 PM 30.1°F-1.1°C 18.3°F-7.6°C 61% 12.0 mph NW19.3 kmh NW 28.0 mph45.1 kmh 30.49 in1032.5 mb 0.00 in0.0 mm 0.00 in0.0 mm 0.00 in0.0 mm
09:54 PM 30.0°F-1.1°C 18.2°F-7.7°C 61% 15.0 mph N24.1 kmh N 28.0 mph45.1 kmh 30.49 in1032.5 mb 0.00 in0.0 mm 0.00 in0.0 mm 0.00 in0.0 mm
09:56 PM 30.1°F-1.1°C 18.3°F-7.6°C 61% 10.0 mph NNW16.1 kmh NNW 28.0 mph45.1 kmh 30.50 in1032.8 mb 0.00 in0.0 mm 0.00 in0.0 mm 0.00 in0.0 mm
09:58 PM 30.0°F-1.1°C 18.2°F-7.7°C 61% 16.0 mph NNW25.7 kmh NNW 28.0 mph45.1 kmh 30.50 in1032.8 mb 0.00 in0.0 mm 0.00 in0.0 mm 0.00 in0.0 mm
10:00 PM 30.1°F-1.1°C 18.3°F-7.6°C 61% 11.0 mph ENE17.7 kmh ENE 28.0 mph45.1 kmh 30.50 in1032.8 mb 0.00 in0.0 mm 0.00 in0.0 mm 0.00 in0.0 mm
10:02 PM 30.0°F-1.1°C 18.2°F-7.7°C 61% 4.0 mph WNW6.4 kmh WNW 28.0 mph45.1 kmh 30.50 in1032.8 mb 0.00 in0.0 mm 0.00 in0.0 mm 0.00 in0.0 mm
10:04 PM 30.0°F-1.1°C 18.2°F-7.7°C 61% 15.0 mph NNW24.1 kmh NNW 22.0 mph35.4 kmh 30.50 in1032.8 mb 0.00 in0.0 mm 0.00 in0.0 mm 0.00 in0.0 mm
10:06 PM 30.0°F-1.1°C 18.2°F-7.7°C 61% 15.0 mph NNE24.1 kmh NNE 22.0 mph35.4 kmh 30.51 in1033.2 mb 0.00 in0.0 mm 0.00 in0.0 mm 0.00 in0.0 mm
10:08 PM 30.0°F-1.1°C 17.8°F-7.9°C 60% 19.0 mph N30.6 kmh N 22.0 mph35.4 kmh 30.50 in1032.8 mb 0.00 in0.0 mm 0.00 in0.0 mm 0.00 in0.0 mm
10:10 PM 30.0°F-1.1°C 18.2°F-7.7°C 61% 14.0 mph N22.5 kmh N 22.0 mph35.4 kmh 30.51 in1033.2 mb 0.00 in0.0 mm 0.00 in0.0 mm 0.00 in0.0 mm
10:12 PM 29.9°F-1.2°C 17.7°F-7.9°C 60% 14.0 mph N22.5 kmh N 22.0 mph35.4 kmh 30.51 in1033.2 mb 0.00 in0.0 mm 0.00 in0.0 mm 0.00 in0.0 mm
10:14 PM 29.9°F-1.2°C 17.7°F-7.9°C 60% 12.0 mph N19.3 kmh N 22.0 mph35.4 kmh 30.51 in1033.2 mb 0.00 in0.0 mm 0.00 in0.0 mm 0.00 in0.0 mm
10:16 PM 30.0°F-1.1°C 17.8°F-7.9°C 60% 5.0 mph N8.0 kmh N 24.0 mph38.6 kmh 30.51 in1033.2 mb 0.00 in0.0 mm 0.00 in0.0 mm 0.00 in0.0 mm
10:18 PM 29.9°F-1.2°C 17.7°F-7.9°C 60% 19.0 mph NW30.6 kmh NW 24.0 mph38.6 kmh 30.51 in1033.2 mb 0.00 in0.0 mm 0.00 in0.0 mm 0.00 in0.0 mm
10:20 PM 29.9°F-1.2°C 17.7°F-7.9°C 60% 11.0 mph N17.7 kmh N 24.0 mph38.6 kmh 30.51 in1033.2 mb 0.00 in0.0 mm 0.00 in0.0 mm 0.00 in0.0 mm
10:22 PM 29.8°F-1.2°C 17.6°F-8.0°C 60% 17.0 mph N27.4 kmh N 24.0 mph38.6 kmh 30.51 in1033.2 mb 0.00 in0.0 mm 0.00 in0.0 mm 0.00 in0.0 mm
10:24 PM 29.8°F-1.2°C 17.6°F-8.0°C 60% 5.0 mph N8.0 kmh N 24.0 mph38.6 kmh 30.50 in1032.8 mb 0.00 in0.0 mm 0.00 in0.0 mm 0.00 in0.0 mm
10:26 PM 29.8°F-1.2°C 17.6°F-8.0°C 60% 11.0 mph NNW17.7 kmh NNW 24.0 mph38.6 kmh 30.50 in1032.8 mb 0.00 in0.0 mm 0.00 in0.0 mm 0.00 in0.0 mm
10:28 PM 29.8°F-1.2°C 17.6°F-8.0°C 60% 14.0 mph N22.5 kmh N 24.0 mph38.6 kmh 30.50 in1032.8 mb 0.00 in0.0 mm 0.00 in0.0 mm 0.00 in0.0 mm
10:30 PM 29.8°F-1.2°C 17.2°F-8.2°C 59% 12.0 mph N19.3 kmh N 24.0 mph38.6 kmh 30.51 in1033.2 mb 0.00 in0.0 mm 0.00 in0.0 mm 0.00 in0.0 mm
10:32 PM 29.8°F-1.2°C 17.2°F-8.2°C 59% 10.0 mph N16.1 kmh N 24.0 mph38.6 kmh 30.51 in1033.2 mb 0.00 in0.0 mm 0.00 in0.0 mm 0.00 in0.0 mm
10:34 PM 29.7°F-1.3°C 16.8°F-8.4°C 58% 4.0 mph NNW6.4 kmh NNW 22.0 mph35.4 kmh 30.51 in1033.2 mb 0.00 in0.0 mm 0.00 in0.0 mm 0.00 in0.0 mm
10:36 PM 29.7°F-1.3°C 16.8°F-8.4°C 58% 16.0 mph NNE25.7 kmh NNE 27.0 mph43.5 kmh 30.51 in1033.2 mb 0.00 in0.0 mm 0.00 in0.0 mm 0.00 in0.0 mm
10:38 PM 29.6°F-1.3°C 17.1°F-8.3°C 59% 6.0 mph NW9.7 kmh NW 27.0 mph43.5 kmh 30.51 in1033.2 mb 0.00 in0.0 mm 0.00 in0.0 mm 0.00 in0.0 mm
10:40 PM 29.5°F-1.4°C 17.0°F-8.3°C 59% 19.0 mph N30.6 kmh N 27.0 mph43.5 kmh 30.51 in1033.2 mb 0.00 in0.0 mm 0.00 in0.0 mm 0.00 in0.0 mm
10:42 PM 29.4°F-1.4°C 16.9°F-8.4°C 59% 13.0 mph NW20.9 kmh NW 27.0 mph43.5 kmh 30.51 in1033.2 mb 0.00 in0.0 mm 0.00 in0.0 mm 0.00 in0.0 mm
10:44 PM 29.4°F-1.4°C 16.9°F-8.4°C 59% 7.0 mph N11.3 kmh N 27.0 mph43.5 kmh 30.51 in1033.2 mb 0.00 in0.0 mm 0.00 in0.0 mm 0.00 in0.0 mm
10:46 PM 29.3°F-1.5°C 16.8°F-8.4°C 59% 2.0 mph NE3.2 kmh NE 27.0 mph43.5 kmh 30.51 in1033.2 mb 0.00 in0.0 mm 0.00 in0.0 mm 0.00 in0.0 mm
10:48 PM 29.3°F-1.5°C 16.8°F-8.4°C 59% 11.0 mph N17.7 kmh N 27.0 mph43.5 kmh 30.51 in1033.2 mb 0.00 in0.0 mm 0.00 in0.0 mm 0.00 in0.0 mm
10:50 PM 29.2°F-1.6°C 16.7°F-8.5°C 59% 3.0 mph NW4.8 kmh NW 27.0 mph43.5 kmh 30.52 in1033.5 mb 0.00 in0.0 mm 0.00 in0.0 mm 0.00 in0.0 mm
10:52 PM 29.2°F-1.6°C 16.7°F-8.5°C 59% 14.0 mph N22.5 kmh N 27.0 mph43.5 kmh 30.52 in1033.5 mb 0.00 in0.0 mm 0.00 in0.0 mm 0.00 in0.0 mm
10:54 PM 29.1°F-1.6°C 16.6°F-8.6°C 59% 21.0 mph NW33.8 kmh NW 27.0 mph43.5 kmh 30.51 in1033.2 mb 0.00 in0.0 mm 0.00 in0.0 mm 0.00 in0.0 mm
10:56 PM 29.1°F-1.6°C 16.6°F-8.6°C 59% 9.0 mph N14.5 kmh N 27.0 mph43.5 kmh 30.51 in1033.2 mb 0.00 in0.0 mm 0.00 in0.0 mm 0.00 in0.0 mm
10:58 PM 29.0°F-1.7°C 16.5°F-8.6°C 59% 15.0 mph N24.1 kmh N 27.0 mph43.5 kmh 30.52 in1033.5 mb 0.00 in0.0 mm 0.00 in0.0 mm 0.00 in0.0 mm
11:00 PM 29.0°F-1.7°C 16.5°F-8.6°C 59% 13.0 mph NNE20.9 kmh NNE 27.0 mph43.5 kmh 30.52 in1033.5 mb 0.00 in0.0 mm 0.00 in0.0 mm 0.00 in0.0 mm
11:02 PM 29.0°F-1.7°C 16.5°F-8.6°C 59% 5.0 mph NNW8.0 kmh NNW 27.0 mph43.5 kmh 30.52 in1033.5 mb 0.00 in0.0 mm 0.00 in0.0 mm 0.00 in0.0 mm
11:04 PM 28.9°F-1.7°C 16.4°F-8.7°C 59% 13.0 mph N20.9 kmh N 18.0 mph29.0 kmh 30.52 in1033.5 mb 0.00 in0.0 mm 0.00 in0.0 mm 0.00 in0.0 mm
11:06 PM 28.9°F-1.7°C 16.4°F-8.7°C 59% 4.0 mph N6.4 kmh N 18.0 mph29.0 kmh 30.52 in1033.5 mb 0.00 in0.0 mm 0.00 in0.0 mm 0.00 in0.0 mm
11:08 PM 28.9°F-1.7°C 16.4°F-8.7°C 59% 1.0 mph N1.6 kmh N 18.0 mph29.0 kmh 30.52 in1033.5 mb 0.00 in0.0 mm 0.00 in0.0 mm 0.00 in0.0 mm
11:10 PM 28.9°F-1.7°C 16.4°F-8.7°C 59% 4.0 mph NW6.4 kmh NW 18.0 mph29.0 kmh 30.52 in1033.5 mb 0.00 in0.0 mm 0.00 in0.0 mm 0.00 in0.0 mm
11:12 PM 28.8°F-1.8°C 16.3°F-8.7°C 59% 3.0 mph N4.8 kmh N 18.0 mph29.0 kmh 30.52 in1033.5 mb 0.00 in0.0 mm 0.00 in0.0 mm 0.00 in0.0 mm
11:14 PM 28.9°F-1.7°C 16.4°F-8.7°C 59% 5.0 mph N8.0 kmh N 18.0 mph29.0 kmh 30.53 in1033.9 mb 0.00 in0.0 mm 0.00 in0.0 mm 0.00 in0.0 mm
11:16 PM 28.8°F-1.8°C 15.9°F-8.9°C 58% 10.0 mph NNW16.1 kmh NNW 18.0 mph29.0 kmh 30.53 in1033.9 mb 0.00 in0.0 mm 0.00 in0.0 mm 0.00 in0.0 mm
11:18 PM 28.9°F-1.7°C 16.0°F-8.9°C 58% 6.0 mph NW9.7 kmh NW 18.0 mph29.0 kmh 30.53 in1033.9 mb 0.00 in0.0 mm 0.00 in0.0 mm 0.00 in0.0 mm
11:20 PM 28.8°F-1.8°C 15.9°F-8.9°C 58% 7.0 mph N11.3 kmh N 19.0 mph30.6 kmh 30.53 in1033.9 mb 0.00 in0.0 mm 0.00 in0.0 mm 0.00 in0.0 mm
11:22 PM 28.8°F-1.8°C 15.9°F-8.9°C 58% 5.0 mph N8.0 kmh N 19.0 mph30.6 kmh 30.52 in1033.5 mb 0.00 in0.0 mm 0.00 in0.0 mm 0.00 in0.0 mm
11:24 PM 28.8°F-1.8°C 15.9°F-8.9°C 58% 11.0 mph NW17.7 kmh NW 19.0 mph30.6 kmh 30.53 in1033.9 mb 0.00 in0.0 mm 0.00 in0.0 mm 0.00 in0.0 mm
11:26 PM 28.7°F-1.8°C 15.8°F-9.0°C 58% 18.0 mph N29.0 kmh N 24.0 mph38.6 kmh 30.53 in1033.9 mb 0.00 in0.0 mm 0.00 in0.0 mm 0.00 in0.0 mm
11:28 PM 28.7°F-1.8°C 15.8°F-9.0°C 58% 2.0 mph N3.2 kmh N 24.0 mph38.6 kmh 30.53 in1033.9 mb 0.00 in0.0 mm 0.00 in0.0 mm 0.00 in0.0 mm
11:30 PM 28.8°F-1.8°C 15.9°F-8.9°C 58% 19.0 mph NNW30.6 kmh NNW 24.0 mph38.6 kmh 30.53 in1033.9 mb 0.00 in0.0 mm 0.00 in0.0 mm 0.00 in0.0 mm
11:32 PM 28.8°F-1.8°C 15.9°F-8.9°C 58% 5.0 mph NE8.0 kmh NE 24.0 mph38.6 kmh 30.53 in1033.9 mb 0.00 in0.0 mm 0.00 in0.0 mm 0.00 in0.0 mm
11:34 PM 28.7°F-1.8°C 15.8°F-9.0°C 58% 15.0 mph NW24.1 kmh NW 18.0 mph29.0 kmh 30.53 in1033.9 mb 0.00 in0.0 mm 0.00 in0.0 mm 0.00 in0.0 mm
11:36 PM 28.6°F-1.9°C 15.3°F-9.3°C 57% 5.0 mph NW8.0 kmh NW 18.0 mph29.0 kmh 30.53 in1033.9 mb 0.00 in0.0 mm 0.00 in0.0 mm 0.00 in0.0 mm
11:38 PM 28.6°F-1.9°C 15.7°F-9.1°C 58% 3.0 mph N4.8 kmh N 18.0 mph29.0 kmh 30.53 in1033.9 mb 0.00 in0.0 mm 0.00 in0.0 mm 0.00 in0.0 mm
11:40 PM 28.7°F-1.8°C 15.8°F-9.0°C 58% 17.0 mph N27.4 kmh N 18.0 mph29.0 kmh 30.52 in1033.5 mb 0.00 in0.0 mm 0.00 in0.0 mm 0.00 in0.0 mm
11:42 PM 28.7°F-1.8°C 15.4°F-9.2°C 57% 5.0 mph NW8.0 kmh NW 18.0 mph29.0 kmh 30.53 in1033.9 mb 0.00 in0.0 mm 0.00 in0.0 mm 0.00 in0.0 mm
11:44 PM 28.6°F-1.9°C 15.3°F-9.3°C 57% 9.0 mph N14.5 kmh N 18.0 mph29.0 kmh 30.53 in1033.9 mb 0.00 in0.0 mm 0.00 in0.0 mm 0.00 in0.0 mm
11:46 PM 28.6°F-1.9°C 15.3°F-9.3°C 57% 8.0 mph NW12.9 kmh NW 18.0 mph29.0 kmh 30.53 in1033.9 mb 0.00 in0.0 mm 0.00 in0.0 mm 0.00 in0.0 mm
11:48 PM 28.6°F-1.9°C 15.7°F-9.1°C 58% 7.0 mph N11.3 kmh N 18.0 mph29.0 kmh 30.53 in1033.9 mb 0.00 in0.0 mm 0.00 in0.0 mm 0.00 in0.0 mm
11:50 PM 28.6°F-1.9°C 15.7°F-9.1°C 58% 8.0 mph NW12.9 kmh NW 18.0 mph29.0 kmh 30.54 in1034.2 mb 0.00 in0.0 mm 0.00 in0.0 mm 0.00 in0.0 mm
11:52 PM 28.6°F-1.9°C 15.7°F-9.1°C 58% 12.0 mph NE19.3 kmh NE 18.0 mph29.0 kmh 30.54 in1034.2 mb 0.00 in0.0 mm 0.00 in0.0 mm 0.00 in0.0 mm
11:54 PM 28.6°F-1.9°C 15.7°F-9.1°C 58% 4.0 mph N6.4 kmh N 18.0 mph29.0 kmh 30.54 in1034.2 mb 0.00 in0.0 mm 0.00 in0.0 mm 0.00 in0.0 mm
11:56 PM 28.6°F-1.9°C 15.3°F-9.3°C 57% 8.0 mph N12.9 kmh N 18.0 mph29.0 kmh 30.54 in1034.2 mb 0.00 in0.0 mm 0.00 in0.0 mm 0.00 in0.0 mm
11:58 PM 28.5°F-1.9°C 15.2°F-9.3°C 57% 6.0 mph NNW9.7 kmh NNW 18.0 mph29.0 kmh 30.54 in1034.2 mb 0.00 in0.0 mm 0.00 in0.0 mm 0.00 in0.0 mm